<?xml version="1.0" encoding="UTF-8"?>
<gpx creator="Garmin Connect" version="1.1"
  xsi:schemaLocation="http://www.topografix.com/GPX/1/1 http://www.topografix.com/GPX/11.xsd"
  xmlns:ns3="http://www.garmin.com/xmlschemas/TrackPointExtension/v1"
  xmlns="http://www.topografix.com/GPX/1/1"
  xmlns:xsi="http://www.w3.org/2001/XMLSchema-instance" xmlns:ns2="http://www.garmin.com/xmlschemas/GpxExtensions/v3">
  <metadata>
    <link href="connect.garmin.com">
      <text>Garmin Connect</text>
    </link>
    <time>2022-04-19T09:50:05.000Z</time>
  </metadata>
  <trk>
    <name>Celle Gehen</name>
    <type>walking</type>
    <trkseg>
      <trkpt lat="52.62134880758821964263916015625" lon="10.06348469294607639312744140625">
        <ele>37</ele>
        <time>2022-04-19T09:50:05.000Z</time>
        <extensions>
          <ns3:TrackPointExtension>
            <ns3:hr>107</ns3:hr>
          </ns3:TrackPointExtension>
        </extensions>
      </trkpt>
      <trkpt lat="52.62136624194681644439697265625" lon="10.06348368711769580841064453125">
        <ele>37</ele>
        <time>2022-04-19T09:50:06.000Z</time>
        <extensions>
          <ns3:TrackPointExtension>
            <ns3:hr>106</ns3:hr>
          </ns3:TrackPointExtension>
        </extensions>
      </trkpt>
      <trkpt lat="52.6213512383401393890380859375" lon="10.06345720030367374420166015625">
        <ele>36.799999237060546875</ele>
        <time>2022-04-19T09:50:10.000Z</time>
        <extensions>
          <ns3:TrackPointExtension>
            <ns3:hr>102</ns3:hr>
          </ns3:TrackPointExtension>
        </extensions>
      </trkpt>
      <trkpt lat="52.62134931050240993499755859375" lon="10.06344848312437534332275390625">
        <ele>37</ele>
        <time>2022-04-19T09:50:11.000Z</time>
        <extensions>
          <ns3:TrackPointExtension>
            <ns3:hr>97</ns3:hr>
          </ns3:TrackPointExtension>
        </extensions>
      </trkpt>
      <trkpt lat="52.6213498972356319427490234375" lon="10.06344462744891643524169921875">
        <ele>37</ele>
        <time>2022-04-19T09:50:12.000Z</time>
        <extensions>
          <ns3:TrackPointExtension>
            <ns3:hr>97</ns3:hr>
          </ns3:TrackPointExtension>
        </extensions>
      </trkpt>
      <trkpt lat="52.62146749533712863922119140625" lon="10.06349642761051654815673828125">
        <ele>37.40000152587890625</ele>
        <time>2022-04-19T09:50:30.000Z</time>
        <extensions>
          <ns3:TrackPointExtension>
            <ns3:hr>96</ns3:hr>
          </ns3:TrackPointExtension>
        </extensions>
      </trkpt>
      <trkpt lat="52.62154452502727508544921875" lon="10.06348720751702785491943359375">
        <ele>37.59999847412109375</ele>
        <time>2022-04-19T09:50:35.000Z</time>
        <extensions>
          <ns3:TrackPointExtension>
            <ns3:hr>99</ns3:hr>
          </ns3:TrackPointExtension>
        </extensions>
      </trkpt>
      <trkpt lat="52.62172146700322628021240234375" lon="10.0635105930268764495849609375">
        <ele>37.799999237060546875</ele>
        <time>2022-04-19T09:50:49.000Z</time>
        <extensions>
          <ns3:TrackPointExtension>
            <ns3:hr>102</ns3:hr>
          </ns3:TrackPointExtension>
        </extensions>
      </trkpt>
      <trkpt lat="52.6217911206185817718505859375" lon="10.063572786748409271240234375">
        <ele>38</ele>
        <time>2022-04-19T09:50:55.000Z</time>
        <extensions>
          <ns3:TrackPointExtension>
            <ns3:hr>103</ns3:hr>
          </ns3:TrackPointExtension>
        </extensions>
      </trkpt>
      <trkpt lat="52.6219191960990428924560546875" lon="10.06365534849464893341064453125">
        <ele>39</ele>
        <time>2022-04-19T09:51:09.000Z</time>
        <extensions>
          <ns3:TrackPointExtension>
            <ns3:hr>103</ns3:hr>
          </ns3:TrackPointExtension>
        </extensions>
      </trkpt>
      <trkpt lat="52.622100748121738433837890625" lon="10.06359097547829151153564453125">
        <ele>39.40000152587890625</ele>
        <time>2022-04-19T09:51:25.000Z</time>
        <extensions>
          <ns3:TrackPointExtension>
            <ns3:hr>102</ns3:hr>
          </ns3:TrackPointExtension>
        </extensions>
      </trkpt>
      <trkpt lat="52.62221097014844417572021484375" lon="10.06361193023622035980224609375">
        <ele>39.40000152587890625</ele>
        <time>2022-04-19T09:51:34.000Z</time>
        <extensions>
          <ns3:TrackPointExtension>
            <ns3:hr>105</ns3:hr>
          </ns3:TrackPointExtension>
        </extensions>
      </trkpt>
      <trkpt lat="52.62231138534843921661376953125" lon="10.06371217779815196990966796875">
        <ele>39.200000762939453125</ele>
        <time>2022-04-19T09:51:44.000Z</time>
        <extensions>
          <ns3:TrackPointExtension>
            <ns3:hr>108</ns3:hr>
          </ns3:TrackPointExtension>
        </extensions>
      </trkpt>
      <trkpt lat="52.62248958460986614227294921875" lon="10.06381007842719554901123046875">
        <ele>40</ele>
        <time>2022-04-19T09:51:58.000Z</time>
        <extensions>
          <ns3:TrackPointExtension>
            <ns3:hr>109</ns3:hr>
          </ns3:TrackPointExtension>
        </extensions>
      </trkpt>
      <trkpt lat="52.62250366620719432830810546875" lon="10.063815526664257049560546875">
        <ele>40</ele>
        <time>2022-04-19T09:51:59.000Z</time>
        <extensions>
          <ns3:TrackPointExtension>
            <ns3:hr>109</ns3:hr>
          </ns3:TrackPointExtension>
        </extensions>
      </trkpt>
      <trkpt lat="52.6226812787353992462158203125" lon="10.0638646446168422698974609375">
        <ele>40.799999237060546875</ele>
        <time>2022-04-19T09:52:12.000Z</time>
        <extensions>
          <ns3:TrackPointExtension>
            <ns3:hr>109</ns3:hr>
          </ns3:TrackPointExtension>
        </extensions>
      </trkpt>
      <trkpt lat="52.62283072806894779205322265625" lon="10.0638887844979763031005859375">
        <ele>41</ele>
        <time>2022-04-19T09:52:23.000Z</time>
        <extensions>
          <ns3:TrackPointExtension>
            <ns3:hr>106</ns3:hr>
          </ns3:TrackPointExtension>
        </extensions>
      </trkpt>
      <trkpt lat="52.62289845384657382965087890625" lon="10.06390010006725788116455078125">
        <ele>41</ele>
        <time>2022-04-19T09:52:28.000Z</time>
        <extensions>
          <ns3:TrackPointExtension>
            <ns3:hr>106</ns3:hr>
          </ns3:TrackPointExtension>
        </extensions>
      </trkpt>
      <trkpt lat="52.62298378162086009979248046875" lon="10.0639095716178417205810546875">
        <ele>41.40000152587890625</ele>
        <time>2022-04-19T09:52:35.000Z</time>
        <extensions>
          <ns3:TrackPointExtension>
            <ns3:hr>103</ns3:hr>
          </ns3:TrackPointExtension>
        </extensions>
      </trkpt>
      <trkpt lat="52.6231754757463932037353515625" lon="10.06393530406057834625244140625">
        <ele>41</ele>
        <time>2022-04-19T09:52:49.000Z</time>
        <extensions>
          <ns3:TrackPointExtension>
            <ns3:hr>103</ns3:hr>
          </ns3:TrackPointExtension>
        </extensions>
      </trkpt>
      <trkpt lat="52.6233531720936298370361328125" lon="10.06398257799446582794189453125">
        <ele>40.799999237060546875</ele>
        <time>2022-04-19T09:53:04.000Z</time>
        <extensions>
          <ns3:TrackPointExtension>
            <ns3:hr>102</ns3:hr>
          </ns3:TrackPointExtension>
        </extensions>
      </trkpt>
      <trkpt lat="52.62342399917542934417724609375" lon="10.06392843089997768402099609375">
        <ele>40.40000152587890625</ele>
        <time>2022-04-19T09:53:18.000Z</time>
        <extensions>
          <ns3:TrackPointExtension>
            <ns3:hr>103</ns3:hr>
          </ns3:TrackPointExtension>
        </extensions>
      </trkpt>
      <trkpt lat="52.62339659035205841064453125" lon="10.06388065405189990997314453125">
        <ele>40</ele>
        <time>2022-04-19T09:53:21.000Z</time>
        <extensions>
          <ns3:TrackPointExtension>
            <ns3:hr>103</ns3:hr>
          </ns3:TrackPointExtension>
        </extensions>
      </trkpt>
      <trkpt lat="52.623274885118007659912109375" lon="10.0637174583971500396728515625">
        <ele>39.40000152587890625</ele>
        <time>2022-04-19T09:53:33.000Z</time>
        <extensions>
          <ns3:TrackPointExtension>
            <ns3:hr>106</ns3:hr>
          </ns3:TrackPointExtension>
        </extensions>
      </trkpt>
      <trkpt lat="52.62326558120548725128173828125" lon="10.063703544437885284423828125">
        <ele>39.200000762939453125</ele>
        <time>2022-04-19T09:53:34.000Z</time>
        <extensions>
          <ns3:TrackPointExtension>
            <ns3:hr>110</ns3:hr>
          </ns3:TrackPointExtension>
        </extensions>
      </trkpt>
      <trkpt lat="52.6232569478452205657958984375" lon="10.0636906363070011138916015625">
        <ele>39</ele>
        <time>2022-04-19T09:53:35.000Z</time>
        <extensions>
          <ns3:TrackPointExtension>
            <ns3:hr>116</ns3:hr>
          </ns3:TrackPointExtension>
        </extensions>
      </trkpt>
      <trkpt lat="52.62324010021984577178955078125" lon="10.0636644847691059112548828125">
        <ele>38.59999847412109375</ele>
        <time>2022-04-19T09:53:37.000Z</time>
        <extensions>
          <ns3:TrackPointExtension>
            <ns3:hr>120</ns3:hr>
          </ns3:TrackPointExtension>
        </extensions>
      </trkpt>
      <trkpt lat="52.62321780435740947723388671875" lon="10.0636158697307109832763671875">
        <ele>38.40000152587890625</ele>
        <time>2022-04-19T09:53:40.000Z</time>
        <extensions>
          <ns3:TrackPointExtension>
            <ns3:hr>124</ns3:hr>
          </ns3:TrackPointExtension>
        </extensions>
      </trkpt>
      <trkpt lat="52.6231989450752735137939453125" lon="10.0635702721774578094482421875">
        <ele>38</ele>
        <time>2022-04-19T09:53:43.000Z</time>
        <extensions>
          <ns3:TrackPointExtension>
            <ns3:hr>126</ns3:hr>
          </ns3:TrackPointExtension>
        </extensions>
      </trkpt>
      <trkpt lat="52.6231761462986469268798828125" lon="10.06334136240184307098388671875">
        <ele>37.200000762939453125</ele>
        <time>2022-04-19T09:53:56.000Z</time>
        <extensions>
          <ns3:TrackPointExtension>
            <ns3:hr>123</ns3:hr>
          </ns3:TrackPointExtension>
        </extensions>
      </trkpt>
      <trkpt lat="52.62318360619246959686279296875" lon="10.06322870962321758270263671875">
        <ele>37</ele>
        <time>2022-04-19T09:54:02.000Z</time>
        <extensions>
          <ns3:TrackPointExtension>
            <ns3:hr>123</ns3:hr>
          </ns3:TrackPointExtension>
        </extensions>
      </trkpt>
      <trkpt lat="52.62323892675340175628662109375" lon="10.06294347345829010009765625">
        <ele>36.40000152587890625</ele>
        <time>2022-04-19T09:54:16.000Z</time>
        <extensions>
          <ns3:TrackPointExtension>
            <ns3:hr>121</ns3:hr>
          </ns3:TrackPointExtension>
        </extensions>
      </trkpt>
      <trkpt lat="52.62325518764555454254150390625" lon="10.0628690421581268310546875">
        <ele>36.40000152587890625</ele>
        <time>2022-04-19T09:54:19.000Z</time>
        <extensions>
          <ns3:TrackPointExtension>
            <ns3:hr>118</ns3:hr>
          </ns3:TrackPointExtension>
        </extensions>
      </trkpt>
      <trkpt lat="52.6233918964862823486328125" lon="10.06267013959586620330810546875">
        <ele>36.40000152587890625</ele>
        <time>2022-04-19T09:54:32.000Z</time>
        <extensions>
          <ns3:TrackPointExtension>
            <ns3:hr>118</ns3:hr>
          </ns3:TrackPointExtension>
        </extensions>
      </trkpt>
      <trkpt lat="52.6234872825443744659423828125" lon="10.06265002302825450897216796875">
        <ele>37</ele>
        <time>2022-04-19T09:54:41.000Z</time>
        <extensions>
          <ns3:TrackPointExtension>
            <ns3:hr>115</ns3:hr>
          </ns3:TrackPointExtension>
        </extensions>
      </trkpt>
      <trkpt lat="52.62360186316072940826416015625" lon="10.062666200101375579833984375">
        <ele>37</ele>
        <time>2022-04-19T09:54:50.000Z</time>
        <extensions>
          <ns3:TrackPointExtension>
            <ns3:hr>112</ns3:hr>
          </ns3:TrackPointExtension>
        </extensions>
      </trkpt>
      <trkpt lat="52.6237850077450275421142578125" lon="10.06270232610404491424560546875">
        <ele>37</ele>
        <time>2022-04-19T09:55:03.000Z</time>
        <extensions>
          <ns3:TrackPointExtension>
            <ns3:hr>111</ns3:hr>
          </ns3:TrackPointExtension>
        </extensions>
      </trkpt>
      <trkpt lat="52.62397418729960918426513671875" lon="10.062723867595195770263671875">
        <ele>37.200000762939453125</ele>
        <time>2022-04-19T09:55:17.000Z</time>
        <extensions>
          <ns3:TrackPointExtension>
            <ns3:hr>109</ns3:hr>
          </ns3:TrackPointExtension>
        </extensions>
      </trkpt>
      <trkpt lat="52.6241631992161273956298828125" lon="10.06276108324527740478515625">
        <ele>37</ele>
        <time>2022-04-19T09:55:31.000Z</time>
        <extensions>
          <ns3:TrackPointExtension>
            <ns3:hr>112</ns3:hr>
          </ns3:TrackPointExtension>
        </extensions>
      </trkpt>
      <trkpt lat="52.62436562217772006988525390625" lon="10.06279218010604381561279296875">
        <ele>36.799999237060546875</ele>
        <time>2022-04-19T09:55:46.000Z</time>
        <extensions>
          <ns3:TrackPointExtension>
            <ns3:hr>114</ns3:hr>
          </ns3:TrackPointExtension>
        </extensions>
      </trkpt>
      <trkpt lat="52.62454968877136707305908203125" lon="10.0628702156245708465576171875">
        <ele>37</ele>
        <time>2022-04-19T09:56:02.000Z</time>
        <extensions>
          <ns3:TrackPointExtension>
            <ns3:hr>114</ns3:hr>
          </ns3:TrackPointExtension>
        </extensions>
      </trkpt>
      <trkpt lat="52.62472956441342830657958984375" lon="10.06290600635111331939697265625">
        <ele>36.59999847412109375</ele>
        <time>2022-04-19T09:56:16.000Z</time>
        <extensions>
          <ns3:TrackPointExtension>
            <ns3:hr>114</ns3:hr>
          </ns3:TrackPointExtension>
        </extensions>
      </trkpt>
      <trkpt lat="52.62491027824580669403076171875" lon="10.06295545957982540130615234375">
        <ele>36.799999237060546875</ele>
        <time>2022-04-19T09:56:29.000Z</time>
        <extensions>
          <ns3:TrackPointExtension>
            <ns3:hr>113</ns3:hr>
          </ns3:TrackPointExtension>
        </extensions>
      </trkpt>
      <trkpt lat="52.62509568594396114349365234375" lon="10.062996111810207366943359375">
        <ele>36.59999847412109375</ele>
        <time>2022-04-19T09:56:43.000Z</time>
        <extensions>
          <ns3:TrackPointExtension>
            <ns3:hr>113</ns3:hr>
          </ns3:TrackPointExtension>
        </extensions>
      </trkpt>
      <trkpt lat="52.62527639977633953094482421875" lon="10.0630117021501064300537109375">
        <ele>36.59999847412109375</ele>
        <time>2022-04-19T09:56:56.000Z</time>
        <extensions>
          <ns3:TrackPointExtension>
            <ns3:hr>111</ns3:hr>
          </ns3:TrackPointExtension>
        </extensions>
      </trkpt>
      <trkpt lat="52.6254181377589702606201171875" lon="10.0630502589046955108642578125">
        <ele>36.40000152587890625</ele>
        <time>2022-04-19T09:57:07.000Z</time>
        <extensions>
          <ns3:TrackPointExtension>
            <ns3:hr>114</ns3:hr>
          </ns3:TrackPointExtension>
        </extensions>
      </trkpt>
      <trkpt lat="52.6256025396287441253662109375" lon="10.0631079263985157012939453125">
        <ele>36.40000152587890625</ele>
        <time>2022-04-19T09:57:21.000Z</time>
        <extensions>
          <ns3:TrackPointExtension>
            <ns3:hr>116</ns3:hr>
          </ns3:TrackPointExtension>
        </extensions>
      </trkpt>
      <trkpt lat="52.62572416104376316070556640625" lon="10.06311991252005100250244140625">
        <ele>36.40000152587890625</ele>
        <time>2022-04-19T09:57:30.000Z</time>
        <extensions>
          <ns3:TrackPointExtension>
            <ns3:hr>113</ns3:hr>
          </ns3:TrackPointExtension>
        </extensions>
      </trkpt>
      <trkpt lat="52.625904120504856109619140625" lon="10.06318311206996440887451171875">
        <ele>36.40000152587890625</ele>
        <time>2022-04-19T09:57:44.000Z</time>
        <extensions>
          <ns3:TrackPointExtension>
            <ns3:hr>111</ns3:hr>
          </ns3:TrackPointExtension>
        </extensions>
      </trkpt>
      <trkpt lat="52.62592859566211700439453125" lon="10.0631867162883281707763671875">
        <ele>36.40000152587890625</ele>
        <time>2022-04-19T09:57:46.000Z</time>
        <extensions>
          <ns3:TrackPointExtension>
            <ns3:hr>115</ns3:hr>
          </ns3:TrackPointExtension>
        </extensions>
      </trkpt>
      <trkpt lat="52.62602783739566802978515625" lon="10.06320205517113208770751953125">
        <ele>36.200000762939453125</ele>
        <time>2022-04-19T09:57:53.000Z</time>
        <extensions>
          <ns3:TrackPointExtension>
            <ns3:hr>111</ns3:hr>
          </ns3:TrackPointExtension>
        </extensions>
      </trkpt>
      <trkpt lat="52.6260866783559322357177734375" lon="10.063210688531398773193359375">
        <ele>36.200000762939453125</ele>
        <time>2022-04-19T09:57:57.000Z</time>
        <extensions>
          <ns3:TrackPointExtension>
            <ns3:hr>107</ns3:hr>
          </ns3:TrackPointExtension>
        </extensions>
      </trkpt>
      <trkpt lat="52.62612565420567989349365234375" lon="10.063216052949428558349609375">
        <ele>36.200000762939453125</ele>
        <time>2022-04-19T09:58:00.000Z</time>
        <extensions>
          <ns3:TrackPointExtension>
            <ns3:hr>104</ns3:hr>
          </ns3:TrackPointExtension>
        </extensions>
      </trkpt>
      <trkpt lat="52.626305110752582550048828125" lon="10.06326005794107913970947265625">
        <ele>36.40000152587890625</ele>
        <time>2022-04-19T09:58:14.000Z</time>
        <extensions>
          <ns3:TrackPointExtension>
            <ns3:hr>102</ns3:hr>
          </ns3:TrackPointExtension>
        </extensions>
      </trkpt>
      <trkpt lat="52.6264923624694347381591796875" lon="10.0632981956005096435546875">
        <ele>36.40000152587890625</ele>
        <time>2022-04-19T09:58:29.000Z</time>
        <extensions>
          <ns3:TrackPointExtension>
            <ns3:hr>102</ns3:hr>
          </ns3:TrackPointExtension>
        </extensions>
      </trkpt>
      <trkpt lat="52.62668170966207981109619140625" lon="10.063346810638904571533203125">
        <ele>36.40000152587890625</ele>
        <time>2022-04-19T09:58:43.000Z</time>
        <extensions>
          <ns3:TrackPointExtension>
            <ns3:hr>104</ns3:hr>
          </ns3:TrackPointExtension>
        </extensions>
      </trkpt>
      <trkpt lat="52.6268467493355274200439453125" lon="10.06336198188364505767822265625">
        <ele>36.799999237060546875</ele>
        <time>2022-04-19T09:58:56.000Z</time>
        <extensions>
          <ns3:TrackPointExtension>
            <ns3:hr>107</ns3:hr>
          </ns3:TrackPointExtension>
        </extensions>
      </trkpt>
      <trkpt lat="52.62692964635789394378662109375" lon="10.06330934353172779083251953125">
        <ele>37</ele>
        <time>2022-04-19T09:59:02.000Z</time>
        <extensions>
          <ns3:TrackPointExtension>
            <ns3:hr>110</ns3:hr>
          </ns3:TrackPointExtension>
        </extensions>
      </trkpt>
      <trkpt lat="52.6269433088600635528564453125" lon="10.0632284581661224365234375">
        <ele>37</ele>
        <time>2022-04-19T09:59:05.000Z</time>
        <extensions>
          <ns3:TrackPointExtension>
            <ns3:hr>113</ns3:hr>
          </ns3:TrackPointExtension>
        </extensions>
      </trkpt>
      <trkpt lat="52.6269510202109813690185546875" lon="10.06316802464425563812255859375">
        <ele>37</ele>
        <time>2022-04-19T09:59:08.000Z</time>
        <extensions>
          <ns3:TrackPointExtension>
            <ns3:hr>116</ns3:hr>
          </ns3:TrackPointExtension>
        </extensions>
      </trkpt>
      <trkpt lat="52.626982368528842926025390625" lon="10.06287801079452037811279296875">
        <ele>37</ele>
        <time>2022-04-19T09:59:23.000Z</time>
        <extensions>
          <ns3:TrackPointExtension>
            <ns3:hr>116</ns3:hr>
          </ns3:TrackPointExtension>
        </extensions>
      </trkpt>
      <trkpt lat="52.6269887387752532958984375" lon="10.0627330876886844635009765625">
        <ele>37</ele>
        <time>2022-04-19T09:59:30.000Z</time>
        <extensions>
          <ns3:TrackPointExtension>
            <ns3:hr>113</ns3:hr>
          </ns3:TrackPointExtension>
        </extensions>
      </trkpt>
      <trkpt lat="52.62700709514319896697998046875" lon="10.062427818775177001953125">
        <ele>37.200000762939453125</ele>
        <time>2022-04-19T09:59:44.000Z</time>
        <extensions>
          <ns3:TrackPointExtension>
            <ns3:hr>113</ns3:hr>
          </ns3:TrackPointExtension>
        </extensions>
      </trkpt>
      <trkpt lat="52.62703509069979190826416015625" lon="10.0621178559958934783935546875">
        <ele>37.200000762939453125</ele>
        <time>2022-04-19T09:59:58.000Z</time>
        <extensions>
          <ns3:TrackPointExtension>
            <ns3:hr>112</ns3:hr>
          </ns3:TrackPointExtension>
        </extensions>
      </trkpt>
      <trkpt lat="52.6270465739071369171142578125" lon="10.061805211007595062255859375">
        <ele>37.200000762939453125</ele>
        <time>2022-04-19T10:00:12.000Z</time>
        <extensions>
          <ns3:TrackPointExtension>
            <ns3:hr>113</ns3:hr>
          </ns3:TrackPointExtension>
        </extensions>
      </trkpt>
      <trkpt lat="52.62706317007541656494140625" lon="10.0617141835391521453857421875">
        <ele>37.200000762939453125</ele>
        <time>2022-04-19T10:00:16.000Z</time>
        <extensions>
          <ns3:TrackPointExtension>
            <ns3:hr>114</ns3:hr>
          </ns3:TrackPointExtension>
        </extensions>
      </trkpt>
      <trkpt lat="52.6270737312734127044677734375" lon="10.061399526894092559814453125">
        <ele>37.59999847412109375</ele>
        <time>2022-04-19T10:00:31.000Z</time>
        <extensions>
          <ns3:TrackPointExtension>
            <ns3:hr>112</ns3:hr>
          </ns3:TrackPointExtension>
        </extensions>
      </trkpt>
      <trkpt lat="52.62706895358860492706298828125" lon="10.0610929168760776519775390625">
        <ele>37.59999847412109375</ele>
        <time>2022-04-19T10:00:45.000Z</time>
        <extensions>
          <ns3:TrackPointExtension>
            <ns3:hr>111</ns3:hr>
          </ns3:TrackPointExtension>
        </extensions>
      </trkpt>
      <trkpt lat="52.62709342874586582183837890625" lon="10.06078773178160190582275390625">
        <ele>37.799999237060546875</ele>
        <time>2022-04-19T10:00:59.000Z</time>
        <extensions>
          <ns3:TrackPointExtension>
            <ns3:hr>110</ns3:hr>
          </ns3:TrackPointExtension>
        </extensions>
      </trkpt>
      <trkpt lat="52.627116478979587554931640625" lon="10.06049151532351970672607421875">
        <ele>38</ele>
        <time>2022-04-19T10:01:12.000Z</time>
        <extensions>
          <ns3:TrackPointExtension>
            <ns3:hr>112</ns3:hr>
          </ns3:TrackPointExtension>
        </extensions>
      </trkpt>
      <trkpt lat="52.62713148258626461029052734375" lon="10.060179792344570159912109375">
        <ele>38.200000762939453125</ele>
        <time>2022-04-19T10:01:26.000Z</time>
        <extensions>
          <ns3:TrackPointExtension>
            <ns3:hr>112</ns3:hr>
          </ns3:TrackPointExtension>
        </extensions>
      </trkpt>
      <trkpt lat="52.62715277262032032012939453125" lon="10.0598684884607791900634765625">
        <ele>38.200000762939453125</ele>
        <time>2022-04-19T10:01:40.000Z</time>
        <extensions>
          <ns3:TrackPointExtension>
            <ns3:hr>110</ns3:hr>
          </ns3:TrackPointExtension>
        </extensions>
      </trkpt>
      <trkpt lat="52.62717909179627895355224609375" lon="10.059721134603023529052734375">
        <ele>38</ele>
        <time>2022-04-19T10:01:47.000Z</time>
        <extensions>
          <ns3:TrackPointExtension>
            <ns3:hr>109</ns3:hr>
          </ns3:TrackPointExtension>
        </extensions>
      </trkpt>
      <trkpt lat="52.62722016312181949615478515625" lon="10.05942114628851413726806640625">
        <ele>38</ele>
        <time>2022-04-19T10:02:02.000Z</time>
        <extensions>
          <ns3:TrackPointExtension>
            <ns3:hr>110</ns3:hr>
          </ns3:TrackPointExtension>
        </extensions>
      </trkpt>
      <trkpt lat="52.62721261940896511077880859375" lon="10.05912610329687595367431640625">
        <ele>37.59999847412109375</ele>
        <time>2022-04-19T10:02:16.000Z</time>
        <extensions>
          <ns3:TrackPointExtension>
            <ns3:hr>109</ns3:hr>
          </ns3:TrackPointExtension>
        </extensions>
      </trkpt>
      <trkpt lat="52.627229802310466766357421875" lon="10.05882854573428630828857421875">
        <ele>37.40000152587890625</ele>
        <time>2022-04-19T10:02:29.000Z</time>
        <extensions>
          <ns3:TrackPointExtension>
            <ns3:hr>112</ns3:hr>
          </ns3:TrackPointExtension>
        </extensions>
      </trkpt>
      <trkpt lat="52.62725536711513996124267578125" lon="10.05851942114531993865966796875">
        <ele>37.59999847412109375</ele>
        <time>2022-04-19T10:02:42.000Z</time>
        <extensions>
          <ns3:TrackPointExtension>
            <ns3:hr>114</ns3:hr>
          </ns3:TrackPointExtension>
        </extensions>
      </trkpt>
      <trkpt lat="52.62728403322398662567138671875" lon="10.05829922854900360107421875">
        <ele>37.799999237060546875</ele>
        <time>2022-04-19T10:02:52.000Z</time>
        <extensions>
          <ns3:TrackPointExtension>
            <ns3:hr>111</ns3:hr>
          </ns3:TrackPointExtension>
        </extensions>
      </trkpt>
      <trkpt lat="52.62730532325804233551025390625" lon="10.05799479782581329345703125">
        <ele>37.59999847412109375</ele>
        <time>2022-04-19T10:03:06.000Z</time>
        <extensions>
          <ns3:TrackPointExtension>
            <ns3:hr>110</ns3:hr>
          </ns3:TrackPointExtension>
        </extensions>
      </trkpt>
      <trkpt lat="52.62732158415019512176513671875" lon="10.0578256510198116302490234375">
        <ele>37.59999847412109375</ele>
        <time>2022-04-19T10:03:14.000Z</time>
        <extensions>
          <ns3:TrackPointExtension>
            <ns3:hr>113</ns3:hr>
          </ns3:TrackPointExtension>
        </extensions>
      </trkpt>
      <trkpt lat="52.6273476518690586090087890625" lon="10.05751426331698894500732421875">
        <ele>38.200000762939453125</ele>
        <time>2022-04-19T10:03:29.000Z</time>
        <extensions>
          <ns3:TrackPointExtension>
            <ns3:hr>112</ns3:hr>
          </ns3:TrackPointExtension>
        </extensions>
      </trkpt>
      <trkpt lat="52.62738696299493312835693359375" lon="10.05721553228795528411865234375">
        <ele>38.200000762939453125</ele>
        <time>2022-04-19T10:03:43.000Z</time>
        <extensions>
          <ns3:TrackPointExtension>
            <ns3:hr>110</ns3:hr>
          </ns3:TrackPointExtension>
        </extensions>
      </trkpt>
      <trkpt lat="52.6274187304079532623291015625" lon="10.05698922090232372283935546875">
        <ele>38.200000762939453125</ele>
        <time>2022-04-19T10:03:54.000Z</time>
        <extensions>
          <ns3:TrackPointExtension>
            <ns3:hr>107</ns3:hr>
          </ns3:TrackPointExtension>
        </extensions>
      </trkpt>
      <trkpt lat="52.627411186695098876953125" lon="10.05668764002621173858642578125">
        <ele>38.59999847412109375</ele>
        <time>2022-04-19T10:04:09.000Z</time>
        <extensions>
          <ns3:TrackPointExtension>
            <ns3:hr>109</ns3:hr>
          </ns3:TrackPointExtension>
        </extensions>
      </trkpt>
      <trkpt lat="52.627381347119808197021484375" lon="10.05639620125293731689453125">
        <ele>38.40000152587890625</ele>
        <time>2022-04-19T10:04:22.000Z</time>
        <extensions>
          <ns3:TrackPointExtension>
            <ns3:hr>109</ns3:hr>
          </ns3:TrackPointExtension>
        </extensions>
      </trkpt>
      <trkpt lat="52.62739769183099269866943359375" lon="10.0560842268168926239013671875">
        <ele>38</ele>
        <time>2022-04-19T10:04:36.000Z</time>
        <extensions>
          <ns3:TrackPointExtension>
            <ns3:hr>110</ns3:hr>
          </ns3:TrackPointExtension>
        </extensions>
      </trkpt>
      <trkpt lat="52.6274140365421772003173828125" lon="10.05576982162892818450927734375">
        <ele>37.40000152587890625</ele>
        <time>2022-04-19T10:04:50.000Z</time>
        <extensions>
          <ns3:TrackPointExtension>
            <ns3:hr>109</ns3:hr>
          </ns3:TrackPointExtension>
        </extensions>
      </trkpt>
      <trkpt lat="52.62743599712848663330078125" lon="10.0554643012583255767822265625">
        <ele>37.40000152587890625</ele>
        <time>2022-04-19T10:05:04.000Z</time>
        <extensions>
          <ns3:TrackPointExtension>
            <ns3:hr>110</ns3:hr>
          </ns3:TrackPointExtension>
        </extensions>
      </trkpt>
      <trkpt lat="52.62746156193315982818603515625" lon="10.0551504828035831451416015625">
        <ele>37.40000152587890625</ele>
        <time>2022-04-19T10:05:18.000Z</time>
        <extensions>
          <ns3:TrackPointExtension>
            <ns3:hr>110</ns3:hr>
          </ns3:TrackPointExtension>
        </extensions>
      </trkpt>
      <trkpt lat="52.627483941614627838134765625" lon="10.0548460520803928375244140625">
        <ele>37.59999847412109375</ele>
        <time>2022-04-19T10:05:32.000Z</time>
        <extensions>
          <ns3:TrackPointExtension>
            <ns3:hr>109</ns3:hr>
          </ns3:TrackPointExtension>
        </extensions>
      </trkpt>
      <trkpt lat="52.62750481255352497100830078125" lon="10.05453097634017467498779296875">
        <ele>37.59999847412109375</ele>
        <time>2022-04-19T10:05:46.000Z</time>
        <extensions>
          <ns3:TrackPointExtension>
            <ns3:hr>109</ns3:hr>
          </ns3:TrackPointExtension>
        </extensions>
      </trkpt>
      <trkpt lat="52.62752995826303958892822265625" lon="10.05422235466539859771728515625">
        <ele>37.59999847412109375</ele>
        <time>2022-04-19T10:06:00.000Z</time>
        <extensions>
          <ns3:TrackPointExtension>
            <ns3:hr>111</ns3:hr>
          </ns3:TrackPointExtension>
        </extensions>
      </trkpt>
      <trkpt lat="52.62754890136420726776123046875" lon="10.05392052233219146728515625">
        <ele>37.59999847412109375</ele>
        <time>2022-04-19T10:06:14.000Z</time>
        <extensions>
          <ns3:TrackPointExtension>
            <ns3:hr>111</ns3:hr>
          </ns3:TrackPointExtension>
        </extensions>
      </trkpt>
      <trkpt lat="52.62755007483065128326416015625" lon="10.05385254509747028350830078125">
        <ele>37.59999847412109375</ele>
        <time>2022-04-19T10:06:17.000Z</time>
        <extensions>
          <ns3:TrackPointExtension>
            <ns3:hr>116</ns3:hr>
          </ns3:TrackPointExtension>
        </extensions>
      </trkpt>
      <trkpt lat="52.62754403986036777496337890625" lon="10.05381524562835693359375">
        <ele>37.40000152587890625</ele>
        <time>2022-04-19T10:06:19.000Z</time>
        <extensions>
          <ns3:TrackPointExtension>
            <ns3:hr>120</ns3:hr>
          </ns3:TrackPointExtension>
        </extensions>
      </trkpt>
      <trkpt lat="52.6273929141461849212646484375" lon="10.053646601736545562744140625">
        <ele>37.59999847412109375</ele>
        <time>2022-04-19T10:06:35.000Z</time>
        <extensions>
          <ns3:TrackPointExtension>
            <ns3:hr>121</ns3:hr>
          </ns3:TrackPointExtension>
        </extensions>
      </trkpt>
      <trkpt lat="52.62722033075988292694091796875" lon="10.0535371340811252593994140625">
        <ele>37</ele>
        <time>2022-04-19T10:06:48.000Z</time>
        <extensions>
          <ns3:TrackPointExtension>
            <ns3:hr>119</ns3:hr>
          </ns3:TrackPointExtension>
        </extensions>
      </trkpt>
      <trkpt lat="52.627169787883758544921875" lon="10.0534652173519134521484375">
        <ele>37</ele>
        <time>2022-04-19T10:06:53.000Z</time>
        <extensions>
          <ns3:TrackPointExtension>
            <ns3:hr>116</ns3:hr>
          </ns3:TrackPointExtension>
        </extensions>
      </trkpt>
      <trkpt lat="52.62714087031781673431396484375" lon="10.05330889485776424407958984375">
        <ele>37</ele>
        <time>2022-04-19T10:07:01.000Z</time>
        <extensions>
          <ns3:TrackPointExtension>
            <ns3:hr>113</ns3:hr>
          </ns3:TrackPointExtension>
        </extensions>
      </trkpt>
      <trkpt lat="52.62707314454019069671630859375" lon="10.053048469126224517822265625">
        <ele>37</ele>
        <time>2022-04-19T10:07:15.000Z</time>
        <extensions>
          <ns3:TrackPointExtension>
            <ns3:hr>114</ns3:hr>
          </ns3:TrackPointExtension>
        </extensions>
      </trkpt>
      <trkpt lat="52.627015896141529083251953125" lon="10.053000189363956451416015625">
        <ele>37</ele>
        <time>2022-04-19T10:07:20.000Z</time>
        <extensions>
          <ns3:TrackPointExtension>
            <ns3:hr>114</ns3:hr>
          </ns3:TrackPointExtension>
        </extensions>
      </trkpt>
      <trkpt lat="52.62682939879596233367919921875" lon="10.05293103866279125213623046875">
        <ele>36.799999237060546875</ele>
        <time>2022-04-19T10:07:34.000Z</time>
        <extensions>
          <ns3:TrackPointExtension>
            <ns3:hr>112</ns3:hr>
          </ns3:TrackPointExtension>
        </extensions>
      </trkpt>
      <trkpt lat="52.62669864110648632049560546875" lon="10.05273775197565555572509765625">
        <ele>36.799999237060546875</ele>
        <time>2022-04-19T10:07:48.000Z</time>
        <extensions>
          <ns3:TrackPointExtension>
            <ns3:hr>112</ns3:hr>
          </ns3:TrackPointExtension>
        </extensions>
      </trkpt>
      <trkpt lat="52.6266373693943023681640625" lon="10.05246031098067760467529296875">
        <ele>36.59999847412109375</ele>
        <time>2022-04-19T10:08:02.000Z</time>
        <extensions>
          <ns3:TrackPointExtension>
            <ns3:hr>112</ns3:hr>
          </ns3:TrackPointExtension>
        </extensions>
      </trkpt>
      <trkpt lat="52.6265976391732692718505859375" lon="10.05215839482843875885009765625">
        <ele>36.59999847412109375</ele>
        <time>2022-04-19T10:08:16.000Z</time>
        <extensions>
          <ns3:TrackPointExtension>
            <ns3:hr>112</ns3:hr>
          </ns3:TrackPointExtension>
        </extensions>
      </trkpt>
      <trkpt lat="52.62657844461500644683837890625" lon="10.05185932852327823638916015625">
        <ele>36.799999237060546875</ele>
        <time>2022-04-19T10:08:30.000Z</time>
        <extensions>
          <ns3:TrackPointExtension>
            <ns3:hr>113</ns3:hr>
          </ns3:TrackPointExtension>
        </extensions>
      </trkpt>
      <trkpt lat="52.62657366693019866943359375" lon="10.05154676735401153564453125">
        <ele>36.799999237060546875</ele>
        <time>2022-04-19T10:08:44.000Z</time>
        <extensions>
          <ns3:TrackPointExtension>
            <ns3:hr>113</ns3:hr>
          </ns3:TrackPointExtension>
        </extensions>
      </trkpt>
      <trkpt lat="52.6265993155539035797119140625" lon="10.05128525197505950927734375">
        <ele>37</ele>
        <time>2022-04-19T10:08:58.000Z</time>
        <extensions>
          <ns3:TrackPointExtension>
            <ns3:hr>112</ns3:hr>
          </ns3:TrackPointExtension>
        </extensions>
      </trkpt>
      <trkpt lat="52.626595459878444671630859375" lon="10.05124862305819988250732421875">
        <ele>37</ele>
        <time>2022-04-19T10:09:00.000Z</time>
        <extensions>
          <ns3:TrackPointExtension>
            <ns3:hr>115</ns3:hr>
          </ns3:TrackPointExtension>
        </extensions>
      </trkpt>
      <trkpt lat="52.6265899278223514556884765625" lon="10.05113563500344753265380859375">
        <ele>37</ele>
        <time>2022-04-19T10:09:05.000Z</time>
        <extensions>
          <ns3:TrackPointExtension>
            <ns3:hr>118</ns3:hr>
          </ns3:TrackPointExtension>
        </extensions>
      </trkpt>
      <trkpt lat="52.62658976018428802490234375" lon="10.0510973297059535980224609375">
        <ele>37</ele>
        <time>2022-04-19T10:09:07.000Z</time>
        <extensions>
          <ns3:TrackPointExtension>
            <ns3:hr>121</ns3:hr>
          </ns3:TrackPointExtension>
        </extensions>
      </trkpt>
      <trkpt lat="52.62659705244004726409912109375" lon="10.05109523423016071319580078125">
        <ele>37</ele>
        <time>2022-04-19T10:09:09.000Z</time>
        <extensions>
          <ns3:TrackPointExtension>
            <ns3:hr>125</ns3:hr>
          </ns3:TrackPointExtension>
        </extensions>
      </trkpt>
      <trkpt lat="52.6266137324273586273193359375" lon="10.051101855933666229248046875">
        <ele>37</ele>
        <time>2022-04-19T10:09:12.000Z</time>
        <extensions>
          <ns3:TrackPointExtension>
            <ns3:hr>128</ns3:hr>
          </ns3:TrackPointExtension>
        </extensions>
      </trkpt>
      <trkpt lat="52.62664549984037876129150390625" lon="10.05110797472298145294189453125">
        <ele>37</ele>
        <time>2022-04-19T10:09:26.000Z</time>
        <extensions>
          <ns3:TrackPointExtension>
            <ns3:hr>125</ns3:hr>
          </ns3:TrackPointExtension>
        </extensions>
      </trkpt>
      <trkpt lat="52.62665019370615482330322265625" lon="10.05110152065753936767578125">
        <ele>37</ele>
        <time>2022-04-19T10:09:34.000Z</time>
        <extensions>
          <ns3:TrackPointExtension>
            <ns3:hr>122</ns3:hr>
          </ns3:TrackPointExtension>
        </extensions>
      </trkpt>
      <trkpt lat="52.6266502775251865386962890625" lon="10.05110126920044422149658203125">
        <ele>37</ele>
        <time>2022-04-19T10:09:39.000Z</time>
        <extensions>
          <ns3:TrackPointExtension>
            <ns3:hr>119</ns3:hr>
          </ns3:TrackPointExtension>
        </extensions>
      </trkpt>
      <trkpt lat="52.6266507804393768310546875" lon="10.05109758116304874420166015625">
        <ele>37</ele>
        <time>2022-04-19T10:09:44.000Z</time>
        <extensions>
          <ns3:TrackPointExtension>
            <ns3:hr>116</ns3:hr>
          </ns3:TrackPointExtension>
        </extensions>
      </trkpt>
      <trkpt lat="52.62659638188779354095458984375" lon="10.05097570829093456268310546875">
        <ele>37</ele>
        <time>2022-04-19T10:10:03.000Z</time>
        <extensions>
          <ns3:TrackPointExtension>
            <ns3:hr>113</ns3:hr>
          </ns3:TrackPointExtension>
        </extensions>
      </trkpt>
      <trkpt lat="52.626588083803653717041015625" lon="10.05089499056339263916015625">
        <ele>37.200000762939453125</ele>
        <time>2022-04-19T10:10:07.000Z</time>
        <extensions>
          <ns3:TrackPointExtension>
            <ns3:hr>110</ns3:hr>
          </ns3:TrackPointExtension>
        </extensions>
      </trkpt>
      <trkpt lat="52.626587413251399993896484375" lon="10.05078124813735485076904296875">
        <ele>37</ele>
        <time>2022-04-19T10:10:12.000Z</time>
        <extensions>
          <ns3:TrackPointExtension>
            <ns3:hr>107</ns3:hr>
          </ns3:TrackPointExtension>
        </extensions>
      </trkpt>
      <trkpt lat="52.626582048833370208740234375" lon="10.0506328046321868896484375">
        <ele>37</ele>
        <time>2022-04-19T10:10:19.000Z</time>
        <extensions>
          <ns3:TrackPointExtension>
            <ns3:hr>110</ns3:hr>
          </ns3:TrackPointExtension>
        </extensions>
      </trkpt>
      <trkpt lat="52.62658213265240192413330078125" lon="10.05054856650531291961669921875">
        <ele>37</ele>
        <time>2022-04-19T10:10:23.000Z</time>
        <extensions>
          <ns3:TrackPointExtension>
            <ns3:hr>107</ns3:hr>
          </ns3:TrackPointExtension>
        </extensions>
      </trkpt>
      <trkpt lat="52.626579701900482177734375" lon="10.0503766536712646484375">
        <ele>37</ele>
        <time>2022-04-19T10:10:31.000Z</time>
        <extensions>
          <ns3:TrackPointExtension>
            <ns3:hr>110</ns3:hr>
          </ns3:TrackPointExtension>
        </extensions>
      </trkpt>
      <trkpt lat="52.6265818811953067779541015625" lon="10.05007163621485233306884765625">
        <ele>37</ele>
        <time>2022-04-19T10:10:45.000Z</time>
        <extensions>
          <ns3:TrackPointExtension>
            <ns3:hr>109</ns3:hr>
          </ns3:TrackPointExtension>
        </extensions>
      </trkpt>
      <trkpt lat="52.6264534704387187957763671875" lon="10.049908943474292755126953125">
        <ele>37</ele>
        <time>2022-04-19T10:10:59.000Z</time>
        <extensions>
          <ns3:TrackPointExtension>
            <ns3:hr>110</ns3:hr>
          </ns3:TrackPointExtension>
        </extensions>
      </trkpt>
      <trkpt lat="52.62627200223505496978759765625" lon="10.0499568879604339599609375">
        <ele>37.40000152587890625</ele>
        <time>2022-04-19T10:11:14.000Z</time>
        <extensions>
          <ns3:TrackPointExtension>
            <ns3:hr>111</ns3:hr>
          </ns3:TrackPointExtension>
        </extensions>
      </trkpt>
      <trkpt lat="52.6260900311172008514404296875" lon="10.04985320381820201873779296875">
        <ele>37.200000762939453125</ele>
        <time>2022-04-19T10:11:27.000Z</time>
        <extensions>
          <ns3:TrackPointExtension>
            <ns3:hr>111</ns3:hr>
          </ns3:TrackPointExtension>
        </extensions>
      </trkpt>
      <trkpt lat="52.62591577135026454925537109375" lon="10.0497817061841487884521484375">
        <ele>37.200000762939453125</ele>
        <time>2022-04-19T10:11:41.000Z</time>
        <extensions>
          <ns3:TrackPointExtension>
            <ns3:hr>113</ns3:hr>
          </ns3:TrackPointExtension>
        </extensions>
      </trkpt>
      <trkpt lat="52.62577093206346035003662109375" lon="10.0496563129127025604248046875">
        <ele>37</ele>
        <time>2022-04-19T10:11:55.000Z</time>
        <extensions>
          <ns3:TrackPointExtension>
            <ns3:hr>113</ns3:hr>
          </ns3:TrackPointExtension>
        </extensions>
      </trkpt>
      <trkpt lat="52.6258228160440921783447265625" lon="10.04936705343425273895263671875">
        <ele>37.40000152587890625</ele>
        <time>2022-04-19T10:12:08.000Z</time>
        <extensions>
          <ns3:TrackPointExtension>
            <ns3:hr>115</ns3:hr>
          </ns3:TrackPointExtension>
        </extensions>
      </trkpt>
      <trkpt lat="52.6258067227900028228759765625" lon="10.04916496574878692626953125">
        <ele>38</ele>
        <time>2022-04-19T10:12:20.000Z</time>
        <extensions>
          <ns3:TrackPointExtension>
            <ns3:hr>115</ns3:hr>
          </ns3:TrackPointExtension>
        </extensions>
      </trkpt>
      <trkpt lat="52.6257654838263988494873046875" lon="10.0491611100733280181884765625">
        <ele>38</ele>
        <time>2022-04-19T10:12:23.000Z</time>
        <extensions>
          <ns3:TrackPointExtension>
            <ns3:hr>115</ns3:hr>
          </ns3:TrackPointExtension>
        </extensions>
      </trkpt>
      <trkpt lat="52.62562676332890987396240234375" lon="10.0491644628345966339111328125">
        <ele>38.200000762939453125</ele>
        <time>2022-04-19T10:12:34.000Z</time>
        <extensions>
          <ns3:TrackPointExtension>
            <ns3:hr>120</ns3:hr>
          </ns3:TrackPointExtension>
        </extensions>
      </trkpt>
      <trkpt lat="52.62560295872390270233154296875" lon="10.04916035570204257965087890625">
        <ele>38</ele>
        <time>2022-04-19T10:12:36.000Z</time>
        <extensions>
          <ns3:TrackPointExtension>
            <ns3:hr>123</ns3:hr>
          </ns3:TrackPointExtension>
        </extensions>
      </trkpt>
      <trkpt lat="52.62555778026580810546875" lon="10.04915331490337848663330078125">
        <ele>37.799999237060546875</ele>
        <time>2022-04-19T10:12:40.000Z</time>
        <extensions>
          <ns3:TrackPointExtension>
            <ns3:hr>120</ns3:hr>
          </ns3:TrackPointExtension>
        </extensions>
      </trkpt>
      <trkpt lat="52.62549734674394130706787109375" lon="10.04915482364594936370849609375">
        <ele>37.799999237060546875</ele>
        <time>2022-04-19T10:12:45.000Z</time>
        <extensions>
          <ns3:TrackPointExtension>
            <ns3:hr>117</ns3:hr>
          </ns3:TrackPointExtension>
        </extensions>
      </trkpt>
      <trkpt lat="52.6254851929843425750732421875" lon="10.0491547398269176483154296875">
        <ele>37.59999847412109375</ele>
        <time>2022-04-19T10:12:46.000Z</time>
        <extensions>
          <ns3:TrackPointExtension>
            <ns3:hr>120</ns3:hr>
          </ns3:TrackPointExtension>
        </extensions>
      </trkpt>
      <trkpt lat="52.62544202618300914764404296875" lon="10.04915532656013965606689453125">
        <ele>37.59999847412109375</ele>
        <time>2022-04-19T10:12:49.000Z</time>
        <extensions>
          <ns3:TrackPointExtension>
            <ns3:hr>115</ns3:hr>
          </ns3:TrackPointExtension>
        </extensions>
      </trkpt>
      <trkpt lat="52.6252736337482929229736328125" lon="10.0491604395210742950439453125">
        <ele>36.799999237060546875</ele>
        <time>2022-04-19T10:13:01.000Z</time>
        <extensions>
          <ns3:TrackPointExtension>
            <ns3:hr>115</ns3:hr>
          </ns3:TrackPointExtension>
        </extensions>
      </trkpt>
      <trkpt lat="52.62508294545114040374755859375" lon="10.04915515892207622528076171875">
        <ele>36.40000152587890625</ele>
        <time>2022-04-19T10:13:14.000Z</time>
        <extensions>
          <ns3:TrackPointExtension>
            <ns3:hr>116</ns3:hr>
          </ns3:TrackPointExtension>
        </extensions>
      </trkpt>
      <trkpt lat="52.62492544949054718017578125" lon="10.0491468608379364013671875">
        <ele>37</ele>
        <time>2022-04-19T10:13:28.000Z</time>
        <extensions>
          <ns3:TrackPointExtension>
            <ns3:hr>119</ns3:hr>
          </ns3:TrackPointExtension>
        </extensions>
      </trkpt>
      <trkpt lat="52.62474574148654937744140625" lon="10.0491839088499546051025390625">
        <ele>37</ele>
        <time>2022-04-19T10:13:43.000Z</time>
        <extensions>
          <ns3:TrackPointExtension>
            <ns3:hr>118</ns3:hr>
          </ns3:TrackPointExtension>
        </extensions>
      </trkpt>
      <trkpt lat="52.62461565434932708740234375" lon="10.049214251339435577392578125">
        <ele>37.200000762939453125</ele>
        <time>2022-04-19T10:13:53.000Z</time>
        <extensions>
          <ns3:TrackPointExtension>
            <ns3:hr>118</ns3:hr>
          </ns3:TrackPointExtension>
        </extensions>
      </trkpt>
      <trkpt lat="52.624434269964694976806640625" lon="10.04919203929603099822998046875">
        <ele>36.59999847412109375</ele>
        <time>2022-04-19T10:14:08.000Z</time>
        <extensions>
          <ns3:TrackPointExtension>
            <ns3:hr>119</ns3:hr>
          </ns3:TrackPointExtension>
        </extensions>
      </trkpt>
      <trkpt lat="52.6242510415613651275634765625" lon="10.0491715036332607269287109375">
        <ele>36.40000152587890625</ele>
        <time>2022-04-19T10:14:19.000Z</time>
        <extensions>
          <ns3:TrackPointExtension>
            <ns3:hr>117</ns3:hr>
          </ns3:TrackPointExtension>
        </extensions>
      </trkpt>
      <trkpt lat="52.624166719615459442138671875" lon="10.04909648559987545013427734375">
        <ele>36.40000152587890625</ele>
        <time>2022-04-19T10:14:26.000Z</time>
        <extensions>
          <ns3:TrackPointExtension>
            <ns3:hr>120</ns3:hr>
          </ns3:TrackPointExtension>
        </extensions>
      </trkpt>
      <trkpt lat="52.6240649633109569549560546875" lon="10.0488965772092342376708984375">
        <ele>36.40000152587890625</ele>
        <time>2022-04-19T10:14:37.000Z</time>
        <extensions>
          <ns3:TrackPointExtension>
            <ns3:hr>117</ns3:hr>
          </ns3:TrackPointExtension>
        </extensions>
      </trkpt>
      <trkpt lat="52.623961530625820159912109375" lon="10.0486364029347896575927734375">
        <ele>36.40000152587890625</ele>
        <time>2022-04-19T10:14:51.000Z</time>
        <extensions>
          <ns3:TrackPointExtension>
            <ns3:hr>116</ns3:hr>
          </ns3:TrackPointExtension>
        </extensions>
      </trkpt>
      <trkpt lat="52.6239147596061229705810546875" lon="10.04835116676986217498779296875">
        <ele>36</ele>
        <time>2022-04-19T10:15:04.000Z</time>
        <extensions>
          <ns3:TrackPointExtension>
            <ns3:hr>118</ns3:hr>
          </ns3:TrackPointExtension>
        </extensions>
      </trkpt>
      <trkpt lat="52.62389975599944591522216796875" lon="10.04817699082195758819580078125">
        <ele>36</ele>
        <time>2022-04-19T10:15:12.000Z</time>
        <extensions>
          <ns3:TrackPointExtension>
            <ns3:hr>115</ns3:hr>
          </ns3:TrackPointExtension>
        </extensions>
      </trkpt>
      <trkpt lat="52.623893134295940399169921875" lon="10.0478759966790676116943359375">
        <ele>36.799999237060546875</ele>
        <time>2022-04-19T10:15:26.000Z</time>
        <extensions>
          <ns3:TrackPointExtension>
            <ns3:hr>115</ns3:hr>
          </ns3:TrackPointExtension>
        </extensions>
      </trkpt>
      <trkpt lat="52.6238966546952724456787109375" lon="10.0475625135004520416259765625">
        <ele>36.799999237060546875</ele>
        <time>2022-04-19T10:15:40.000Z</time>
        <extensions>
          <ns3:TrackPointExtension>
            <ns3:hr>116</ns3:hr>
          </ns3:TrackPointExtension>
        </extensions>
      </trkpt>
      <trkpt lat="52.623940408229827880859375" lon="10.047267638146877288818359375">
        <ele>37</ele>
        <time>2022-04-19T10:15:54.000Z</time>
        <extensions>
          <ns3:TrackPointExtension>
            <ns3:hr>117</ns3:hr>
          </ns3:TrackPointExtension>
        </extensions>
      </trkpt>
      <trkpt lat="52.62400302104651927947998046875" lon="10.04697284661233425140380859375">
        <ele>37</ele>
        <time>2022-04-19T10:16:08.000Z</time>
        <extensions>
          <ns3:TrackPointExtension>
            <ns3:hr>117</ns3:hr>
          </ns3:TrackPointExtension>
        </extensions>
      </trkpt>
      <trkpt lat="52.6240451820194721221923828125" lon="10.04664637148380279541015625">
        <ele>37</ele>
        <time>2022-04-19T10:16:24.000Z</time>
        <extensions>
          <ns3:TrackPointExtension>
            <ns3:hr>115</ns3:hr>
          </ns3:TrackPointExtension>
        </extensions>
      </trkpt>
      <trkpt lat="52.6240834034979343414306640625" lon="10.0463424436748027801513671875">
        <ele>37</ele>
        <time>2022-04-19T10:16:39.000Z</time>
        <extensions>
          <ns3:TrackPointExtension>
            <ns3:hr>117</ns3:hr>
          </ns3:TrackPointExtension>
        </extensions>
      </trkpt>
      <trkpt lat="52.6240730099380016326904296875" lon="10.046114958822727203369140625">
        <ele>37</ele>
        <time>2022-04-19T10:16:51.000Z</time>
        <extensions>
          <ns3:TrackPointExtension>
            <ns3:hr>115</ns3:hr>
          </ns3:TrackPointExtension>
        </extensions>
      </trkpt>
      <trkpt lat="52.62402154505252838134765625" lon="10.0458552874624729156494140625">
        <ele>35.799999237060546875</ele>
        <time>2022-04-19T10:17:06.000Z</time>
        <extensions>
          <ns3:TrackPointExtension>
            <ns3:hr>115</ns3:hr>
          </ns3:TrackPointExtension>
        </extensions>
      </trkpt>
      <trkpt lat="52.62407728470861911773681640625" lon="10.0456859730184078216552734375">
        <ele>35.200000762939453125</ele>
        <time>2022-04-19T10:17:17.000Z</time>
        <extensions>
          <ns3:TrackPointExtension>
            <ns3:hr>118</ns3:hr>
          </ns3:TrackPointExtension>
        </extensions>
      </trkpt>
      <trkpt lat="52.62411131523549556732177734375" lon="10.04547432996332645416259765625">
        <ele>34.799999237060546875</ele>
        <time>2022-04-19T10:17:25.000Z</time>
        <extensions>
          <ns3:TrackPointExtension>
            <ns3:hr>117</ns3:hr>
          </ns3:TrackPointExtension>
        </extensions>
      </trkpt>
      <trkpt lat="52.62421667575836181640625" lon="10.04523527808487415313720703125">
        <ele>34.40000152587890625</ele>
        <time>2022-04-19T10:17:38.000Z</time>
        <extensions>
          <ns3:TrackPointExtension>
            <ns3:hr>117</ns3:hr>
          </ns3:TrackPointExtension>
        </extensions>
      </trkpt>
      <trkpt lat="52.62434416450560092926025390625" lon="10.0451445020735263824462890625">
        <ele>35.799999237060546875</ele>
        <time>2022-04-19T10:17:48.000Z</time>
        <extensions>
          <ns3:TrackPointExtension>
            <ns3:hr>117</ns3:hr>
          </ns3:TrackPointExtension>
        </extensions>
      </trkpt>
      <trkpt lat="52.62452387250959873199462890625" lon="10.04508825950324535369873046875">
        <ele>36.59999847412109375</ele>
        <time>2022-04-19T10:18:02.000Z</time>
        <extensions>
          <ns3:TrackPointExtension>
            <ns3:hr>119</ns3:hr>
          </ns3:TrackPointExtension>
        </extensions>
      </trkpt>
      <trkpt lat="52.62465395964682102203369140625" lon="10.0450603477656841278076171875">
        <ele>34.799999237060546875</ele>
        <time>2022-04-19T10:18:13.000Z</time>
        <extensions>
          <ns3:TrackPointExtension>
            <ns3:hr>118</ns3:hr>
          </ns3:TrackPointExtension>
        </extensions>
      </trkpt>
      <trkpt lat="52.6248226873576641082763671875" lon="10.0450445897877216339111328125">
        <ele>35</ele>
        <time>2022-04-19T10:18:25.000Z</time>
        <extensions>
          <ns3:TrackPointExtension>
            <ns3:hr>116</ns3:hr>
          </ns3:TrackPointExtension>
        </extensions>
      </trkpt>
      <trkpt lat="52.6249180734157562255859375" lon="10.04503679461777210235595703125">
        <ele>35.200000762939453125</ele>
        <time>2022-04-19T10:18:31.000Z</time>
        <extensions>
          <ns3:TrackPointExtension>
            <ns3:hr>113</ns3:hr>
          </ns3:TrackPointExtension>
        </extensions>
      </trkpt>
      <trkpt lat="52.62502594850957393646240234375" lon="10.04503302276134490966796875">
        <ele>34.59999847412109375</ele>
        <time>2022-04-19T10:18:39.000Z</time>
        <extensions>
          <ns3:TrackPointExtension>
            <ns3:hr>110</ns3:hr>
          </ns3:TrackPointExtension>
        </extensions>
      </trkpt>
      <trkpt lat="52.62506634928286075592041015625" lon="10.045033358037471771240234375">
        <ele>34.200000762939453125</ele>
        <time>2022-04-19T10:18:42.000Z</time>
        <extensions>
          <ns3:TrackPointExtension>
            <ns3:hr>113</ns3:hr>
          </ns3:TrackPointExtension>
        </extensions>
      </trkpt>
      <trkpt lat="52.62508009560406208038330078125" lon="10.0450335256755352020263671875">
        <ele>34.200000762939453125</ele>
        <time>2022-04-19T10:18:43.000Z</time>
        <extensions>
          <ns3:TrackPointExtension>
            <ns3:hr>118</ns3:hr>
          </ns3:TrackPointExtension>
        </extensions>
      </trkpt>
      <trkpt lat="52.625106833875179290771484375" lon="10.04503042437136173248291015625">
        <ele>34.200000762939453125</ele>
        <time>2022-04-19T10:18:45.000Z</time>
        <extensions>
          <ns3:TrackPointExtension>
            <ns3:hr>122</ns3:hr>
          </ns3:TrackPointExtension>
        </extensions>
      </trkpt>
      <trkpt lat="52.62514715082943439483642578125" lon="10.0450308434665203094482421875">
        <ele>34.200000762939453125</ele>
        <time>2022-04-19T10:18:48.000Z</time>
        <extensions>
          <ns3:TrackPointExtension>
            <ns3:hr>125</ns3:hr>
          </ns3:TrackPointExtension>
        </extensions>
      </trkpt>
      <trkpt lat="52.62518587522208690643310546875" lon="10.04502899944782257080078125">
        <ele>34.200000762939453125</ele>
        <time>2022-04-19T10:18:51.000Z</time>
        <extensions>
          <ns3:TrackPointExtension>
            <ns3:hr>128</ns3:hr>
          </ns3:TrackPointExtension>
        </extensions>
      </trkpt>
      <trkpt lat="52.62523524463176727294921875" lon="10.04502095282077789306640625">
        <ele>34.40000152587890625</ele>
        <time>2022-04-19T10:18:55.000Z</time>
        <extensions>
          <ns3:TrackPointExtension>
            <ns3:hr>131</ns3:hr>
          </ns3:TrackPointExtension>
        </extensions>
      </trkpt>
      <trkpt lat="52.62539207004010677337646484375" lon="10.0450120680034160614013671875">
        <ele>34.799999237060546875</ele>
        <time>2022-04-19T10:19:06.000Z</time>
        <extensions>
          <ns3:TrackPointExtension>
            <ns3:hr>128</ns3:hr>
          </ns3:TrackPointExtension>
        </extensions>
      </trkpt>
      <trkpt lat="52.625564150512218475341796875" lon="10.045013241469860076904296875">
        <ele>34.799999237060546875</ele>
        <time>2022-04-19T10:19:19.000Z</time>
        <extensions>
          <ns3:TrackPointExtension>
            <ns3:hr>125</ns3:hr>
          </ns3:TrackPointExtension>
        </extensions>
      </trkpt>
      <trkpt lat="52.62571779079735279083251953125" lon="10.045009888708591461181640625">
        <ele>34.799999237060546875</ele>
        <time>2022-04-19T10:19:30.000Z</time>
        <extensions>
          <ns3:TrackPointExtension>
            <ns3:hr>131</ns3:hr>
          </ns3:TrackPointExtension>
        </extensions>
      </trkpt>
      <trkpt lat="52.62573136948049068450927734375" lon="10.04501030780375003814697265625">
        <ele>34.799999237060546875</ele>
        <time>2022-04-19T10:19:31.000Z</time>
        <extensions>
          <ns3:TrackPointExtension>
            <ns3:hr>131</ns3:hr>
          </ns3:TrackPointExtension>
        </extensions>
      </trkpt>
      <trkpt lat="52.62586011551320552825927734375" lon="10.0450124032795429229736328125">
        <ele>35.799999237060546875</ele>
        <time>2022-04-19T10:19:41.000Z</time>
        <extensions>
          <ns3:TrackPointExtension>
            <ns3:hr>133</ns3:hr>
          </ns3:TrackPointExtension>
        </extensions>
      </trkpt>
      <trkpt lat="52.6259924657642841339111328125" lon="10.045009553432464599609375">
        <ele>37</ele>
        <time>2022-04-19T10:19:51.000Z</time>
        <extensions>
          <ns3:TrackPointExtension>
            <ns3:hr>131</ns3:hr>
          </ns3:TrackPointExtension>
        </extensions>
      </trkpt>
      <trkpt lat="52.62617804110050201416015625" lon="10.044983737170696258544921875">
        <ele>36.799999237060546875</ele>
        <time>2022-04-19T10:20:05.000Z</time>
        <extensions>
          <ns3:TrackPointExtension>
            <ns3:hr>130</ns3:hr>
          </ns3:TrackPointExtension>
        </extensions>
      </trkpt>
      <trkpt lat="52.62630142271518707275390625" lon="10.04495884291827678680419921875">
        <ele>36.200000762939453125</ele>
        <time>2022-04-19T10:20:14.000Z</time>
        <extensions>
          <ns3:TrackPointExtension>
            <ns3:hr>127</ns3:hr>
          </ns3:TrackPointExtension>
        </extensions>
      </trkpt>
      <trkpt lat="52.62634190730750560760498046875" lon="10.04495196975767612457275390625">
        <ele>35.799999237060546875</ele>
        <time>2022-04-19T10:20:17.000Z</time>
        <extensions>
          <ns3:TrackPointExtension>
            <ns3:hr>127</ns3:hr>
          </ns3:TrackPointExtension>
        </extensions>
      </trkpt>
      <trkpt lat="52.6265282370150089263916015625" lon="10.04492347128689289093017578125">
        <ele>36.200000762939453125</ele>
        <time>2022-04-19T10:20:31.000Z</time>
        <extensions>
          <ns3:TrackPointExtension>
            <ns3:hr>125</ns3:hr>
          </ns3:TrackPointExtension>
        </extensions>
      </trkpt>
      <trkpt lat="52.6267012394964694976806640625" lon="10.04490251652896404266357421875">
        <ele>36.200000762939453125</ele>
        <time>2022-04-19T10:20:44.000Z</time>
        <extensions>
          <ns3:TrackPointExtension>
            <ns3:hr>128</ns3:hr>
          </ns3:TrackPointExtension>
        </extensions>
      </trkpt>
      <trkpt lat="52.6267686299979686737060546875" lon="10.04489346407353878021240234375">
        <ele>36.200000762939453125</ele>
        <time>2022-04-19T10:20:49.000Z</time>
        <extensions>
          <ns3:TrackPointExtension>
            <ns3:hr>125</ns3:hr>
          </ns3:TrackPointExtension>
        </extensions>
      </trkpt>
      <trkpt lat="52.62695043347775936126708984375" lon="10.0448219664394855499267578125">
        <ele>35</ele>
        <time>2022-04-19T10:21:03.000Z</time>
        <extensions>
          <ns3:TrackPointExtension>
            <ns3:hr>123</ns3:hr>
          </ns3:TrackPointExtension>
        </extensions>
      </trkpt>
      <trkpt lat="52.62703710235655307769775390625" lon="10.0447689928114414215087890625">
        <ele>35.200000762939453125</ele>
        <time>2022-04-19T10:21:10.000Z</time>
        <extensions>
          <ns3:TrackPointExtension>
            <ns3:hr>120</ns3:hr>
          </ns3:TrackPointExtension>
        </extensions>
      </trkpt>
      <trkpt lat="52.62722276151180267333984375" lon="10.04472230561077594757080078125">
        <ele>35.59999847412109375</ele>
        <time>2022-04-19T10:21:25.000Z</time>
        <extensions>
          <ns3:TrackPointExtension>
            <ns3:hr>120</ns3:hr>
          </ns3:TrackPointExtension>
        </extensions>
      </trkpt>
      <trkpt lat="52.62730347923934459686279296875" lon="10.04478634335100650787353515625">
        <ele>35.40000152587890625</ele>
        <time>2022-04-19T10:21:32.000Z</time>
        <extensions>
          <ns3:TrackPointExtension>
            <ns3:hr>123</ns3:hr>
          </ns3:TrackPointExtension>
        </extensions>
      </trkpt>
      <trkpt lat="52.6273546926677227020263671875" lon="10.04485666751861572265625">
        <ele>35.200000762939453125</ele>
        <time>2022-04-19T10:21:37.000Z</time>
        <extensions>
          <ns3:TrackPointExtension>
            <ns3:hr>126</ns3:hr>
          </ns3:TrackPointExtension>
        </extensions>
      </trkpt>
      <trkpt lat="52.6274116896092891693115234375" lon="10.04495649598538875579833984375">
        <ele>34.799999237060546875</ele>
        <time>2022-04-19T10:21:43.000Z</time>
        <extensions>
          <ns3:TrackPointExtension>
            <ns3:hr>127</ns3:hr>
          </ns3:TrackPointExtension>
        </extensions>
      </trkpt>
      <trkpt lat="52.6274572871625423431396484375" lon="10.04504014737904071807861328125">
        <ele>34.59999847412109375</ele>
        <time>2022-04-19T10:21:48.000Z</time>
        <extensions>
          <ns3:TrackPointExtension>
            <ns3:hr>124</ns3:hr>
          </ns3:TrackPointExtension>
        </extensions>
      </trkpt>
      <trkpt lat="52.62758293189108371734619140625" lon="10.04526746459305286407470703125">
        <ele>34.799999237060546875</ele>
        <time>2022-04-19T10:22:02.000Z</time>
        <extensions>
          <ns3:TrackPointExtension>
            <ns3:hr>123</ns3:hr>
          </ns3:TrackPointExtension>
        </extensions>
      </trkpt>
      <trkpt lat="52.62767513282597064971923828125" lon="10.045422278344631195068359375">
        <ele>35.59999847412109375</ele>
        <time>2022-04-19T10:22:12.000Z</time>
        <extensions>
          <ns3:TrackPointExtension>
            <ns3:hr>126</ns3:hr>
          </ns3:TrackPointExtension>
        </extensions>
      </trkpt>
      <trkpt lat="52.62780622579157352447509765625" lon="10.04564465023577213287353515625">
        <ele>34.799999237060546875</ele>
        <time>2022-04-19T10:22:26.000Z</time>
        <extensions>
          <ns3:TrackPointExtension>
            <ns3:hr>127</ns3:hr>
          </ns3:TrackPointExtension>
        </extensions>
      </trkpt>
      <trkpt lat="52.62792876921594142913818359375" lon="10.04588068462908267974853515625">
        <ele>35</ele>
        <time>2022-04-19T10:22:40.000Z</time>
        <extensions>
          <ns3:TrackPointExtension>
            <ns3:hr>127</ns3:hr>
          </ns3:TrackPointExtension>
        </extensions>
      </trkpt>
      <trkpt lat="52.62800303287804126739501953125" lon="10.046006329357624053955078125">
        <ele>35.59999847412109375</ele>
        <time>2022-04-19T10:22:48.000Z</time>
        <extensions>
          <ns3:TrackPointExtension>
            <ns3:hr>124</ns3:hr>
          </ns3:TrackPointExtension>
        </extensions>
      </trkpt>
      <trkpt lat="52.62808182276785373687744140625" lon="10.04607782699167728424072265625">
        <ele>35.59999847412109375</ele>
        <time>2022-04-19T10:22:55.000Z</time>
        <extensions>
          <ns3:TrackPointExtension>
            <ns3:hr>121</ns3:hr>
          </ns3:TrackPointExtension>
        </extensions>
      </trkpt>
      <trkpt lat="52.62817050330340862274169921875" lon="10.04612476564943790435791015625">
        <ele>34.799999237060546875</ele>
        <time>2022-04-19T10:23:02.000Z</time>
        <extensions>
          <ns3:TrackPointExtension>
            <ns3:hr>124</ns3:hr>
          </ns3:TrackPointExtension>
        </extensions>
      </trkpt>
      <trkpt lat="52.6283507980406284332275390625" lon="10.046158544719219207763671875">
        <ele>35.200000762939453125</ele>
        <time>2022-04-19T10:23:16.000Z</time>
        <extensions>
          <ns3:TrackPointExtension>
            <ns3:hr>125</ns3:hr>
          </ns3:TrackPointExtension>
        </extensions>
      </trkpt>
      <trkpt lat="52.62853360734879970550537109375" lon="10.04614538513123989105224609375">
        <ele>35</ele>
        <time>2022-04-19T10:23:32.000Z</time>
        <extensions>
          <ns3:TrackPointExtension>
            <ns3:hr>127</ns3:hr>
          </ns3:TrackPointExtension>
        </extensions>
      </trkpt>
      <trkpt lat="52.62872270308434963226318359375" lon="10.0461422838270664215087890625">
        <ele>35.200000762939453125</ele>
        <time>2022-04-19T10:23:47.000Z</time>
        <extensions>
          <ns3:TrackPointExtension>
            <ns3:hr>125</ns3:hr>
          </ns3:TrackPointExtension>
        </extensions>
      </trkpt>
      <trkpt lat="52.628840468823909759521484375" lon="10.04614857025444507598876953125">
        <ele>35</ele>
        <time>2022-04-19T10:23:56.000Z</time>
        <extensions>
          <ns3:TrackPointExtension>
            <ns3:hr>122</ns3:hr>
          </ns3:TrackPointExtension>
        </extensions>
      </trkpt>
      <trkpt lat="52.62902411632239818572998046875" lon="10.0461401045322418212890625">
        <ele>35</ele>
        <time>2022-04-19T10:24:07.000Z</time>
        <extensions>
          <ns3:TrackPointExtension>
            <ns3:hr>124</ns3:hr>
          </ns3:TrackPointExtension>
        </extensions>
      </trkpt>
      <trkpt lat="52.62913140468299388885498046875" lon="10.04613515920937061309814453125">
        <ele>35.799999237060546875</ele>
        <time>2022-04-19T10:24:15.000Z</time>
        <extensions>
          <ns3:TrackPointExtension>
            <ns3:hr>125</ns3:hr>
          </ns3:TrackPointExtension>
        </extensions>
      </trkpt>
      <trkpt lat="52.62932385317981243133544921875" lon="10.04614035598933696746826171875">
        <ele>35.40000152587890625</ele>
        <time>2022-04-19T10:24:28.000Z</time>
        <extensions>
          <ns3:TrackPointExtension>
            <ns3:hr>126</ns3:hr>
          </ns3:TrackPointExtension>
        </extensions>
      </trkpt>
      <trkpt lat="52.62951814569532871246337890625" lon="10.0461483187973499298095703125">
        <ele>35.799999237060546875</ele>
        <time>2022-04-19T10:24:42.000Z</time>
        <extensions>
          <ns3:TrackPointExtension>
            <ns3:hr>128</ns3:hr>
          </ns3:TrackPointExtension>
        </extensions>
      </trkpt>
      <trkpt lat="52.62956659309566020965576171875" lon="10.04614052362740039825439453125">
        <ele>36</ele>
        <time>2022-04-19T10:24:45.000Z</time>
        <extensions>
          <ns3:TrackPointExtension>
            <ns3:hr>125</ns3:hr>
          </ns3:TrackPointExtension>
        </extensions>
      </trkpt>
      <trkpt lat="52.62972651980817317962646484375" lon="10.04616768099367618560791015625">
        <ele>35.799999237060546875</ele>
        <time>2022-04-19T10:24:57.000Z</time>
        <extensions>
          <ns3:TrackPointExtension>
            <ns3:hr>122</ns3:hr>
          </ns3:TrackPointExtension>
        </extensions>
      </trkpt>
      <trkpt lat="52.6297777332365512847900390625" lon="10.04618226550519466400146484375">
        <ele>36</ele>
        <time>2022-04-19T10:25:03.000Z</time>
        <extensions>
          <ns3:TrackPointExtension>
            <ns3:hr>125</ns3:hr>
          </ns3:TrackPointExtension>
        </extensions>
      </trkpt>
      <trkpt lat="52.62983146123588085174560546875" lon="10.04620037041604518890380859375">
        <ele>36</ele>
        <time>2022-04-19T10:25:07.000Z</time>
        <extensions>
          <ns3:TrackPointExtension>
            <ns3:hr>126</ns3:hr>
          </ns3:TrackPointExtension>
        </extensions>
      </trkpt>
      <trkpt lat="52.63001569546759128570556640625" lon="10.04624378867447376251220703125">
        <ele>35.799999237060546875</ele>
        <time>2022-04-19T10:25:20.000Z</time>
        <extensions>
          <ns3:TrackPointExtension>
            <ns3:hr>124</ns3:hr>
          </ns3:TrackPointExtension>
        </extensions>
      </trkpt>
      <trkpt lat="52.63019339181482791900634765625" lon="10.0462462194263935089111328125">
        <ele>36</ele>
        <time>2022-04-19T10:25:32.000Z</time>
        <extensions>
          <ns3:TrackPointExtension>
            <ns3:hr>121</ns3:hr>
          </ns3:TrackPointExtension>
        </extensions>
      </trkpt>
      <trkpt lat="52.63038416393101215362548828125" lon="10.0462822616100311279296875">
        <ele>36.40000152587890625</ele>
        <time>2022-04-19T10:25:46.000Z</time>
        <extensions>
          <ns3:TrackPointExtension>
            <ns3:hr>122</ns3:hr>
          </ns3:TrackPointExtension>
        </extensions>
      </trkpt>
      <trkpt lat="52.63054333627223968505859375" lon="10.04630967043340206146240234375">
        <ele>36.59999847412109375</ele>
        <time>2022-04-19T10:25:58.000Z</time>
        <extensions>
          <ns3:TrackPointExtension>
            <ns3:hr>119</ns3:hr>
          </ns3:TrackPointExtension>
        </extensions>
      </trkpt>
      <trkpt lat="52.6305659674108028411865234375" lon="10.04630967043340206146240234375">
        <ele>37</ele>
        <time>2022-04-19T10:26:00.000Z</time>
        <extensions>
          <ns3:TrackPointExtension>
            <ns3:hr>119</ns3:hr>
          </ns3:TrackPointExtension>
        </extensions>
      </trkpt>
      <trkpt lat="52.63061282224953174591064453125" lon="10.0463159568607807159423828125">
        <ele>36.799999237060546875</ele>
        <time>2022-04-19T10:26:04.000Z</time>
        <extensions>
          <ns3:TrackPointExtension>
            <ns3:hr>122</ns3:hr>
          </ns3:TrackPointExtension>
        </extensions>
      </trkpt>
      <trkpt lat="52.63077308423817157745361328125" lon="10.04643824882805347442626953125">
        <ele>37.200000762939453125</ele>
        <time>2022-04-19T10:26:17.000Z</time>
        <extensions>
          <ns3:TrackPointExtension>
            <ns3:hr>121</ns3:hr>
          </ns3:TrackPointExtension>
        </extensions>
      </trkpt>
      <trkpt lat="52.63079336844384670257568359375" lon="10.0465255044400691986083984375">
        <ele>37.40000152587890625</ele>
        <time>2022-04-19T10:26:21.000Z</time>
        <extensions>
          <ns3:TrackPointExtension>
            <ns3:hr>121</ns3:hr>
          </ns3:TrackPointExtension>
        </extensions>
      </trkpt>
      <trkpt lat="52.6307661272585391998291015625" lon="10.04662650637328624725341796875">
        <ele>38</ele>
        <time>2022-04-19T10:26:29.000Z</time>
        <extensions>
          <ns3:TrackPointExtension>
            <ns3:hr>120</ns3:hr>
          </ns3:TrackPointExtension>
        </extensions>
      </trkpt>
      <trkpt lat="52.63078833930194377899169921875" lon="10.046928338706493377685546875">
        <ele>38.59999847412109375</ele>
        <time>2022-04-19T10:26:41.000Z</time>
        <extensions>
          <ns3:TrackPointExtension>
            <ns3:hr>121</ns3:hr>
          </ns3:TrackPointExtension>
        </extensions>
      </trkpt>
      <trkpt lat="52.6308237947523593902587890625" lon="10.04707376472651958465576171875">
        <ele>38.59999847412109375</ele>
        <time>2022-04-19T10:26:49.000Z</time>
        <extensions>
          <ns3:TrackPointExtension>
            <ns3:hr>124</ns3:hr>
          </ns3:TrackPointExtension>
        </extensions>
      </trkpt>
      <trkpt lat="52.630851455032825469970703125" lon="10.047242157161235809326171875">
        <ele>38.40000152587890625</ele>
        <time>2022-04-19T10:26:56.000Z</time>
        <extensions>
          <ns3:TrackPointExtension>
            <ns3:hr>127</ns3:hr>
          </ns3:TrackPointExtension>
        </extensions>
      </trkpt>
      <trkpt lat="52.63086662627756595611572265625" lon="10.04755170084536075592041015625">
        <ele>38.200000762939453125</ele>
        <time>2022-04-19T10:27:10.000Z</time>
        <extensions>
          <ns3:TrackPointExtension>
            <ns3:hr>127</ns3:hr>
          </ns3:TrackPointExtension>
        </extensions>
      </trkpt>
      <trkpt lat="52.63086109422147274017333984375" lon="10.04786065779626369476318359375">
        <ele>38.200000762939453125</ele>
        <time>2022-04-19T10:27:24.000Z</time>
        <extensions>
          <ns3:TrackPointExtension>
            <ns3:hr>126</ns3:hr>
          </ns3:TrackPointExtension>
        </extensions>
      </trkpt>
      <trkpt lat="52.63086847029626369476318359375" lon="10.04796559922397136688232421875">
        <ele>38</ele>
        <time>2022-04-19T10:27:29.000Z</time>
        <extensions>
          <ns3:TrackPointExtension>
            <ns3:hr>129</ns3:hr>
          </ns3:TrackPointExtension>
        </extensions>
      </trkpt>
      <trkpt lat="52.63087769038975238800048828125" lon="10.0482018850743770599365234375">
        <ele>38.200000762939453125</ele>
        <time>2022-04-19T10:27:40.000Z</time>
        <extensions>
          <ns3:TrackPointExtension>
            <ns3:hr>132</ns3:hr>
          </ns3:TrackPointExtension>
        </extensions>
      </trkpt>
      <trkpt lat="52.63086981140077114105224609375" lon="10.04830976016819477081298828125">
        <ele>38.40000152587890625</ele>
        <time>2022-04-19T10:27:45.000Z</time>
        <extensions>
          <ns3:TrackPointExtension>
            <ns3:hr>129</ns3:hr>
          </ns3:TrackPointExtension>
        </extensions>
      </trkpt>
      <trkpt lat="52.63086310587823390960693359375" lon="10.0483973510563373565673828125">
        <ele>38.59999847412109375</ele>
        <time>2022-04-19T10:27:49.000Z</time>
        <extensions>
          <ns3:TrackPointExtension>
            <ns3:hr>126</ns3:hr>
          </ns3:TrackPointExtension>
        </extensions>
      </trkpt>
      <trkpt lat="52.6308522932231426239013671875" lon="10.04852198995649814605712890625">
        <ele>38.40000152587890625</ele>
        <time>2022-04-19T10:27:55.000Z</time>
        <extensions>
          <ns3:TrackPointExtension>
            <ns3:hr>123</ns3:hr>
          </ns3:TrackPointExtension>
        </extensions>
      </trkpt>
      <trkpt lat="52.6308589987456798553466796875" lon="10.048701278865337371826171875">
        <ele>38.40000152587890625</ele>
        <time>2022-04-19T10:28:04.000Z</time>
        <extensions>
          <ns3:TrackPointExtension>
            <ns3:hr>120</ns3:hr>
          </ns3:TrackPointExtension>
        </extensions>
      </trkpt>
      <trkpt lat="52.63083913363516330718994140625" lon="10.04897863604128360748291015625">
        <ele>38.799999237060546875</ele>
        <time>2022-04-19T10:28:16.000Z</time>
        <extensions>
          <ns3:TrackPointExtension>
            <ns3:hr>123</ns3:hr>
          </ns3:TrackPointExtension>
        </extensions>
      </trkpt>
      <trkpt lat="52.6308338530361652374267578125" lon="10.049023143947124481201171875">
        <ele>39</ele>
        <time>2022-04-19T10:28:18.000Z</time>
        <extensions>
          <ns3:TrackPointExtension>
            <ns3:hr>124</ns3:hr>
          </ns3:TrackPointExtension>
        </extensions>
      </trkpt>
      <trkpt lat="52.63081826269626617431640625" lon="10.0491376407444477081298828125">
        <ele>39.200000762939453125</ele>
        <time>2022-04-19T10:28:23.000Z</time>
        <extensions>
          <ns3:TrackPointExtension>
            <ns3:hr>127</ns3:hr>
          </ns3:TrackPointExtension>
        </extensions>
      </trkpt>
      <trkpt lat="52.63079546391963958740234375" lon="10.04943092353641986846923828125">
        <ele>39</ele>
        <time>2022-04-19T10:28:36.000Z</time>
        <extensions>
          <ns3:TrackPointExtension>
            <ns3:hr>128</ns3:hr>
          </ns3:TrackPointExtension>
        </extensions>
      </trkpt>
      <trkpt lat="52.6307627744972705841064453125" lon="10.0496013276278972625732421875">
        <ele>39.200000762939453125</ele>
        <time>2022-04-19T10:28:44.000Z</time>
        <extensions>
          <ns3:TrackPointExtension>
            <ns3:hr>125</ns3:hr>
          </ns3:TrackPointExtension>
        </extensions>
      </trkpt>
      <trkpt lat="52.63073821552097797393798828125" lon="10.0497994758188724517822265625">
        <ele>39.40000152587890625</ele>
        <time>2022-04-19T10:28:53.000Z</time>
        <extensions>
          <ns3:TrackPointExtension>
            <ns3:hr>122</ns3:hr>
          </ns3:TrackPointExtension>
        </extensions>
      </trkpt>
      <trkpt lat="52.630693875253200531005859375" lon="10.05010851658880710601806640625">
        <ele>39</ele>
        <time>2022-04-19T10:29:07.000Z</time>
        <extensions>
          <ns3:TrackPointExtension>
            <ns3:hr>121</ns3:hr>
          </ns3:TrackPointExtension>
        </extensions>
      </trkpt>
      <trkpt lat="52.6306259818375110626220703125" lon="10.0503887236118316650390625">
        <ele>39.40000152587890625</ele>
        <time>2022-04-19T10:29:20.000Z</time>
        <extensions>
          <ns3:TrackPointExtension>
            <ns3:hr>123</ns3:hr>
          </ns3:TrackPointExtension>
        </extensions>
      </trkpt>
      <trkpt lat="52.63060594908893108367919921875" lon="10.05056197755038738250732421875">
        <ele>39.200000762939453125</ele>
        <time>2022-04-19T10:29:29.000Z</time>
        <extensions>
          <ns3:TrackPointExtension>
            <ns3:hr>126</ns3:hr>
          </ns3:TrackPointExtension>
        </extensions>
      </trkpt>
      <trkpt lat="52.63056973926723003387451171875" lon="10.05086137913167476654052734375">
        <ele>38.799999237060546875</ele>
        <time>2022-04-19T10:29:43.000Z</time>
        <extensions>
          <ns3:TrackPointExtension>
            <ns3:hr>124</ns3:hr>
          </ns3:TrackPointExtension>
        </extensions>
      </trkpt>
      <trkpt lat="52.6305126585066318511962890625" lon="10.05117670632898807525634765625">
        <ele>39.40000152587890625</ele>
        <time>2022-04-19T10:29:57.000Z</time>
        <extensions>
          <ns3:TrackPointExtension>
            <ns3:hr>126</ns3:hr>
          </ns3:TrackPointExtension>
        </extensions>
      </trkpt>
      <trkpt lat="52.630447782576084136962890625" lon="10.05147225223481655120849609375">
        <ele>39.200000762939453125</ele>
        <time>2022-04-19T10:30:11.000Z</time>
        <extensions>
          <ns3:TrackPointExtension>
            <ns3:hr>125</ns3:hr>
          </ns3:TrackPointExtension>
        </extensions>
      </trkpt>
      <trkpt lat="52.63038986362516880035400390625" lon="10.0517608411610126495361328125">
        <ele>39</ele>
        <time>2022-04-19T10:30:25.000Z</time>
        <extensions>
          <ns3:TrackPointExtension>
            <ns3:hr>126</ns3:hr>
          </ns3:TrackPointExtension>
        </extensions>
      </trkpt>
      <trkpt lat="52.63033554889261722564697265625" lon="10.05205638706684112548828125">
        <ele>39</ele>
        <time>2022-04-19T10:30:39.000Z</time>
        <extensions>
          <ns3:TrackPointExtension>
            <ns3:hr>128</ns3:hr>
          </ns3:TrackPointExtension>
        </extensions>
      </trkpt>
      <trkpt lat="52.63026212342083454132080078125" lon="10.052281357347965240478515625">
        <ele>39.59999847412109375</ele>
        <time>2022-04-19T10:30:52.000Z</time>
        <extensions>
          <ns3:TrackPointExtension>
            <ns3:hr>125</ns3:hr>
          </ns3:TrackPointExtension>
        </extensions>
      </trkpt>
      <trkpt lat="52.63019339181482791900634765625" lon="10.0525524280965328216552734375">
        <ele>39.200000762939453125</ele>
        <time>2022-04-19T10:31:07.000Z</time>
        <extensions>
          <ns3:TrackPointExtension>
            <ns3:hr>124</ns3:hr>
          </ns3:TrackPointExtension>
        </extensions>
      </trkpt>
      <trkpt lat="52.63012734241783618927001953125" lon="10.05286800675094127655029296875">
        <ele>39.40000152587890625</ele>
        <time>2022-04-19T10:31:22.000Z</time>
        <extensions>
          <ns3:TrackPointExtension>
            <ns3:hr>123</ns3:hr>
          </ns3:TrackPointExtension>
        </extensions>
      </trkpt>
      <trkpt lat="52.63006581924855709075927734375" lon="10.05314008332788944244384765625">
        <ele>39.799999237060546875</ele>
        <time>2022-04-19T10:31:36.000Z</time>
        <extensions>
          <ns3:TrackPointExtension>
            <ns3:hr>123</ns3:hr>
          </ns3:TrackPointExtension>
        </extensions>
      </trkpt>
      <trkpt lat="52.6300469599664211273193359375" lon="10.0532508082687854766845703125">
        <ele>39.59999847412109375</ele>
        <time>2022-04-19T10:31:41.000Z</time>
        <extensions>
          <ns3:TrackPointExtension>
            <ns3:hr>126</ns3:hr>
          </ns3:TrackPointExtension>
        </extensions>
      </trkpt>
      <trkpt lat="52.63000530190765857696533203125" lon="10.0535411573946475982666015625">
        <ele>39.40000152587890625</ele>
        <time>2022-04-19T10:31:54.000Z</time>
        <extensions>
          <ns3:TrackPointExtension>
            <ns3:hr>126</ns3:hr>
          </ns3:TrackPointExtension>
        </extensions>
      </trkpt>
      <trkpt lat="52.6299601234495639801025390625" lon="10.0537245534360408782958984375">
        <ele>39.799999237060546875</ele>
        <time>2022-04-19T10:32:03.000Z</time>
        <extensions>
          <ns3:TrackPointExtension>
            <ns3:hr>123</ns3:hr>
          </ns3:TrackPointExtension>
        </extensions>
      </trkpt>
      <trkpt lat="52.629895918071269989013671875" lon="10.054012052714824676513671875">
        <ele>39.40000152587890625</ele>
        <time>2022-04-19T10:32:17.000Z</time>
        <extensions>
          <ns3:TrackPointExtension>
            <ns3:hr>124</ns3:hr>
          </ns3:TrackPointExtension>
        </extensions>
      </trkpt>
      <trkpt lat="52.6298193074762821197509765625" lon="10.05430097691714763641357421875">
        <ele>39.799999237060546875</ele>
        <time>2022-04-19T10:32:31.000Z</time>
        <extensions>
          <ns3:TrackPointExtension>
            <ns3:hr>124</ns3:hr>
          </ns3:TrackPointExtension>
        </extensions>
      </trkpt>
      <trkpt lat="52.62978963553905487060546875" lon="10.0545469857752323150634765625">
        <ele>39.59999847412109375</ele>
        <time>2022-04-19T10:32:42.000Z</time>
        <extensions>
          <ns3:TrackPointExtension>
            <ns3:hr>121</ns3:hr>
          </ns3:TrackPointExtension>
        </extensions>
      </trkpt>
      <trkpt lat="52.6297227479517459869384765625" lon="10.0548626482486724853515625">
        <ele>40</ele>
        <time>2022-04-19T10:32:57.000Z</time>
        <extensions>
          <ns3:TrackPointExtension>
            <ns3:hr>120</ns3:hr>
          </ns3:TrackPointExtension>
        </extensions>
      </trkpt>
      <trkpt lat="52.6296333968639373779296875" lon="10.05514495074748992919921875">
        <ele>39.59999847412109375</ele>
        <time>2022-04-19T10:33:12.000Z</time>
        <extensions>
          <ns3:TrackPointExtension>
            <ns3:hr>121</ns3:hr>
          </ns3:TrackPointExtension>
        </extensions>
      </trkpt>
      <trkpt lat="52.62958704493939876556396484375" lon="10.055336058139801025390625">
        <ele>39.59999847412109375</ele>
        <time>2022-04-19T10:33:21.000Z</time>
        <extensions>
          <ns3:TrackPointExtension>
            <ns3:hr>124</ns3:hr>
          </ns3:TrackPointExtension>
        </extensions>
      </trkpt>
      <trkpt lat="52.62956726364791393280029296875" lon="10.05550143308937549591064453125">
        <ele>40</ele>
        <time>2022-04-19T10:33:29.000Z</time>
        <extensions>
          <ns3:TrackPointExtension>
            <ns3:hr>123</ns3:hr>
          </ns3:TrackPointExtension>
        </extensions>
      </trkpt>
      <trkpt lat="52.62954010628163814544677734375" lon="10.05580116994678974151611328125">
        <ele>39.59999847412109375</ele>
        <time>2022-04-19T10:33:43.000Z</time>
        <extensions>
          <ns3:TrackPointExtension>
            <ns3:hr>123</ns3:hr>
          </ns3:TrackPointExtension>
        </extensions>
      </trkpt>
      <trkpt lat="52.62948662973940372467041015625" lon="10.05609855987131595611572265625">
        <ele>39.59999847412109375</ele>
        <time>2022-04-19T10:33:58.000Z</time>
        <extensions>
          <ns3:TrackPointExtension>
            <ns3:hr>124</ns3:hr>
          </ns3:TrackPointExtension>
        </extensions>
      </trkpt>
      <trkpt lat="52.62943834997713565826416015625" lon="10.0563889928162097930908203125">
        <ele>39.799999237060546875</ele>
        <time>2022-04-19T10:34:13.000Z</time>
        <extensions>
          <ns3:TrackPointExtension>
            <ns3:hr>123</ns3:hr>
          </ns3:TrackPointExtension>
        </extensions>
      </trkpt>
      <trkpt lat="52.62936123646795749664306640625" lon="10.0567132048308849334716796875">
        <ele>39.59999847412109375</ele>
        <time>2022-04-19T10:34:27.000Z</time>
        <extensions>
          <ns3:TrackPointExtension>
            <ns3:hr>120</ns3:hr>
          </ns3:TrackPointExtension>
        </extensions>
      </trkpt>
      <trkpt lat="52.62935436330735683441162109375" lon="10.0569763965904712677001953125">
        <ele>40.200000762939453125</ele>
        <time>2022-04-19T10:34:53.000Z</time>
        <extensions>
          <ns3:TrackPointExtension>
            <ns3:hr>123</ns3:hr>
          </ns3:TrackPointExtension>
        </extensions>
      </trkpt>
      <trkpt lat="52.62935872189700603485107421875" lon="10.056981928646564483642578125">
        <ele>40.799999237060546875</ele>
        <time>2022-04-19T10:35:02.000Z</time>
        <extensions>
          <ns3:TrackPointExtension>
            <ns3:hr>118</ns3:hr>
          </ns3:TrackPointExtension>
        </extensions>
      </trkpt>
      <trkpt lat="52.62926735915243625640869140625" lon="10.05703414790332317352294921875">
        <ele>40.59999847412109375</ele>
        <time>2022-04-19T10:35:14.000Z</time>
        <extensions>
          <ns3:TrackPointExtension>
            <ns3:hr>120</ns3:hr>
          </ns3:TrackPointExtension>
        </extensions>
      </trkpt>
      <trkpt lat="52.6292339153587818145751953125" lon="10.057053677737712860107421875">
        <ele>40.59999847412109375</ele>
        <time>2022-04-19T10:35:17.000Z</time>
        <extensions>
          <ns3:TrackPointExtension>
            <ns3:hr>121</ns3:hr>
          </ns3:TrackPointExtension>
        </extensions>
      </trkpt>
      <trkpt lat="52.629186473786830902099609375" lon="10.05714897997677326202392578125">
        <ele>40.59999847412109375</ele>
        <time>2022-04-19T10:35:22.000Z</time>
        <extensions>
          <ns3:TrackPointExtension>
            <ns3:hr>117</ns3:hr>
          </ns3:TrackPointExtension>
        </extensions>
      </trkpt>
      <trkpt lat="52.6291568018496036529541015625" lon="10.0572241656482219696044921875">
        <ele>40.59999847412109375</ele>
        <time>2022-04-19T10:35:25.000Z</time>
        <extensions>
          <ns3:TrackPointExtension>
            <ns3:hr>114</ns3:hr>
          </ns3:TrackPointExtension>
        </extensions>
      </trkpt>
      <trkpt lat="52.62913425453007221221923828125" lon="10.0572820007801055908203125">
        <ele>40.59999847412109375</ele>
        <time>2022-04-19T10:35:28.000Z</time>
        <extensions>
          <ns3:TrackPointExtension>
            <ns3:hr>111</ns3:hr>
          </ns3:TrackPointExtension>
        </extensions>
      </trkpt>
      <trkpt lat="52.6290213502943515777587890625" lon="10.05751141346991062164306640625">
        <ele>40.200000762939453125</ele>
        <time>2022-04-19T10:35:40.000Z</time>
        <extensions>
          <ns3:TrackPointExtension>
            <ns3:hr>113</ns3:hr>
          </ns3:TrackPointExtension>
        </extensions>
      </trkpt>
      <trkpt lat="52.62888128869235515594482421875" lon="10.05765524692833423614501953125">
        <ele>40.200000762939453125</ele>
        <time>2022-04-19T10:35:56.000Z</time>
        <extensions>
          <ns3:TrackPointExtension>
            <ns3:hr>115</ns3:hr>
          </ns3:TrackPointExtension>
        </extensions>
      </trkpt>
      <trkpt lat="52.62873996980488300323486328125" lon="10.05758039653301239013671875">
        <ele>39.799999237060546875</ele>
        <time>2022-04-19T10:36:08.000Z</time>
        <extensions>
          <ns3:TrackPointExtension>
            <ns3:hr>118</ns3:hr>
          </ns3:TrackPointExtension>
        </extensions>
      </trkpt>
      <trkpt lat="52.62855472974479198455810546875" lon="10.0574692524969577789306640625">
        <ele>39.200000762939453125</ele>
        <time>2022-04-19T10:36:23.000Z</time>
        <extensions>
          <ns3:TrackPointExtension>
            <ns3:hr>116</ns3:hr>
          </ns3:TrackPointExtension>
        </extensions>
      </trkpt>
      <trkpt lat="52.62837250716984272003173828125" lon="10.05736808292567729949951171875">
        <ele>39.40000152587890625</ele>
        <time>2022-04-19T10:36:38.000Z</time>
        <extensions>
          <ns3:TrackPointExtension>
            <ns3:hr>116</ns3:hr>
          </ns3:TrackPointExtension>
        </extensions>
      </trkpt>
      <trkpt lat="52.628278546035289764404296875" lon="10.05734033882617950439453125">
        <ele>39.200000762939453125</ele>
        <time>2022-04-19T10:36:45.000Z</time>
        <extensions>
          <ns3:TrackPointExtension>
            <ns3:hr>117</ns3:hr>
          </ns3:TrackPointExtension>
        </extensions>
      </trkpt>
      <trkpt lat="52.628168575465679168701171875" lon="10.0573224015533924102783203125">
        <ele>39</ele>
        <time>2022-04-19T10:36:52.000Z</time>
        <extensions>
          <ns3:TrackPointExtension>
            <ns3:hr>116</ns3:hr>
          </ns3:TrackPointExtension>
        </extensions>
      </trkpt>
      <trkpt lat="52.62797554023563861846923828125" lon="10.0572954118251800537109375">
        <ele>39.200000762939453125</ele>
        <time>2022-04-19T10:37:06.000Z</time>
        <extensions>
          <ns3:TrackPointExtension>
            <ns3:hr>114</ns3:hr>
          </ns3:TrackPointExtension>
        </extensions>
      </trkpt>
      <trkpt lat="52.62786858715116977691650390625" lon="10.05730236880481243133544921875">
        <ele>39</ele>
        <time>2022-04-19T10:37:15.000Z</time>
        <extensions>
          <ns3:TrackPointExtension>
            <ns3:hr>117</ns3:hr>
          </ns3:TrackPointExtension>
        </extensions>
      </trkpt>
      <trkpt lat="52.6276887953281402587890625" lon="10.05727537907660007476806640625">
        <ele>39</ele>
        <time>2022-04-19T10:37:29.000Z</time>
        <extensions>
          <ns3:TrackPointExtension>
            <ns3:hr>114</ns3:hr>
          </ns3:TrackPointExtension>
        </extensions>
      </trkpt>
      <trkpt lat="52.62754638679325580596923828125" lon="10.05724268965423107147216796875">
        <ele>39</ele>
        <time>2022-04-19T10:37:42.000Z</time>
        <extensions>
          <ns3:TrackPointExtension>
            <ns3:hr>117</ns3:hr>
          </ns3:TrackPointExtension>
        </extensions>
      </trkpt>
      <trkpt lat="52.6274787448346614837646484375" lon="10.05745693109929561614990234375">
        <ele>39.799999237060546875</ele>
        <time>2022-04-19T10:37:55.000Z</time>
        <extensions>
          <ns3:TrackPointExtension>
            <ns3:hr>114</ns3:hr>
          </ns3:TrackPointExtension>
        </extensions>
      </trkpt>
      <trkpt lat="52.6274462230503559112548828125" lon="10.0577492080628871917724609375">
        <ele>40</ele>
        <time>2022-04-19T10:38:09.000Z</time>
        <extensions>
          <ns3:TrackPointExtension>
            <ns3:hr>117</ns3:hr>
          </ns3:TrackPointExtension>
        </extensions>
      </trkpt>
      <trkpt lat="52.62741043232381343841552734375" lon="10.05797660909593105316162109375">
        <ele>40</ele>
        <time>2022-04-19T10:38:18.000Z</time>
        <extensions>
          <ns3:TrackPointExtension>
            <ns3:hr>119</ns3:hr>
          </ns3:TrackPointExtension>
        </extensions>
      </trkpt>
      <trkpt lat="52.62731730937957763671875" lon="10.05814894102513790130615234375">
        <ele>40</ele>
        <time>2022-04-19T10:38:29.000Z</time>
        <extensions>
          <ns3:TrackPointExtension>
            <ns3:hr>116</ns3:hr>
          </ns3:TrackPointExtension>
        </extensions>
      </trkpt>
      <trkpt lat="52.627267353236675262451171875" lon="10.0584407150745391845703125">
        <ele>39.59999847412109375</ele>
        <time>2022-04-19T10:38:42.000Z</time>
        <extensions>
          <ns3:TrackPointExtension>
            <ns3:hr>116</ns3:hr>
          </ns3:TrackPointExtension>
        </extensions>
      </trkpt>
      <trkpt lat="52.6272531040012836456298828125" lon="10.058597289025783538818359375">
        <ele>39.799999237060546875</ele>
        <time>2022-04-19T10:38:48.000Z</time>
        <extensions>
          <ns3:TrackPointExtension>
            <ns3:hr>119</ns3:hr>
          </ns3:TrackPointExtension>
        </extensions>
      </trkpt>
      <trkpt lat="52.6272272877395153045654296875" lon="10.05889107473194599151611328125">
        <ele>39.799999237060546875</ele>
        <time>2022-04-19T10:39:02.000Z</time>
        <extensions>
          <ns3:TrackPointExtension>
            <ns3:hr>117</ns3:hr>
          </ns3:TrackPointExtension>
        </extensions>
      </trkpt>
      <trkpt lat="52.62721530161798000335693359375" lon="10.05922324955463409423828125">
        <ele>40.200000762939453125</ele>
        <time>2022-04-19T10:39:16.000Z</time>
        <extensions>
          <ns3:TrackPointExtension>
            <ns3:hr>116</ns3:hr>
          </ns3:TrackPointExtension>
        </extensions>
      </trkpt>
      <trkpt lat="52.62718831188976764678955078125" lon="10.05952633917331695556640625">
        <ele>40</ele>
        <time>2022-04-19T10:39:30.000Z</time>
        <extensions>
          <ns3:TrackPointExtension>
            <ns3:hr>117</ns3:hr>
          </ns3:TrackPointExtension>
        </extensions>
      </trkpt>
      <trkpt lat="52.62716970406472682952880859375" lon="10.05982716567814350128173828125">
        <ele>40.200000762939453125</ele>
        <time>2022-04-19T10:39:43.000Z</time>
        <extensions>
          <ns3:TrackPointExtension>
            <ns3:hr>116</ns3:hr>
          </ns3:TrackPointExtension>
        </extensions>
      </trkpt>
      <trkpt lat="52.62714338488876819610595703125" lon="10.060135535895824432373046875">
        <ele>40.59999847412109375</ele>
        <time>2022-04-19T10:39:57.000Z</time>
        <extensions>
          <ns3:TrackPointExtension>
            <ns3:hr>115</ns3:hr>
          </ns3:TrackPointExtension>
        </extensions>
      </trkpt>
      <trkpt lat="52.6271320693194866180419921875" lon="10.0604317523539066314697265625">
        <ele>40.40000152587890625</ele>
        <time>2022-04-19T10:40:11.000Z</time>
        <extensions>
          <ns3:TrackPointExtension>
            <ns3:hr>116</ns3:hr>
          </ns3:TrackPointExtension>
        </extensions>
      </trkpt>
      <trkpt lat="52.62711019255220890045166015625" lon="10.060743056237697601318359375">
        <ele>40.200000762939453125</ele>
        <time>2022-04-19T10:40:24.000Z</time>
        <extensions>
          <ns3:TrackPointExtension>
            <ns3:hr>116</ns3:hr>
          </ns3:TrackPointExtension>
        </extensions>
      </trkpt>
      <trkpt lat="52.6271062530577182769775390625" lon="10.06090424023568630218505859375">
        <ele>40</ele>
        <time>2022-04-19T10:40:32.000Z</time>
        <extensions>
          <ns3:TrackPointExtension>
            <ns3:hr>113</ns3:hr>
          </ns3:TrackPointExtension>
        </extensions>
      </trkpt>
      <trkpt lat="52.627094686031341552734375" lon="10.06110322661697864532470703125">
        <ele>40.200000762939453125</ele>
        <time>2022-04-19T10:40:40.000Z</time>
        <extensions>
          <ns3:TrackPointExtension>
            <ns3:hr>116</ns3:hr>
          </ns3:TrackPointExtension>
        </extensions>
      </trkpt>
      <trkpt lat="52.6270663551986217498779296875" lon="10.0614064000546932220458984375">
        <ele>40.200000762939453125</ele>
        <time>2022-04-19T10:40:54.000Z</time>
        <extensions>
          <ns3:TrackPointExtension>
            <ns3:hr>116</ns3:hr>
          </ns3:TrackPointExtension>
        </extensions>
      </trkpt>
      <trkpt lat="52.6270395331084728240966796875" lon="10.061719380319118499755859375">
        <ele>40</ele>
        <time>2022-04-19T10:41:08.000Z</time>
        <extensions>
          <ns3:TrackPointExtension>
            <ns3:hr>117</ns3:hr>
          </ns3:TrackPointExtension>
        </extensions>
      </trkpt>
      <trkpt lat="52.627030313014984130859375" lon="10.06201140582561492919921875">
        <ele>40.200000762939453125</ele>
        <time>2022-04-19T10:41:23.000Z</time>
        <extensions>
          <ns3:TrackPointExtension>
            <ns3:hr>118</ns3:hr>
          </ns3:TrackPointExtension>
        </extensions>
      </trkpt>
      <trkpt lat="52.6270284689962863922119140625" lon="10.06218709051609039306640625">
        <ele>40</ele>
        <time>2022-04-19T10:41:30.000Z</time>
        <extensions>
          <ns3:TrackPointExtension>
            <ns3:hr>121</ns3:hr>
          </ns3:TrackPointExtension>
        </extensions>
      </trkpt>
      <trkpt lat="52.6270257867872714996337890625" lon="10.0622521340847015380859375">
        <ele>39.799999237060546875</ele>
        <time>2022-04-19T10:41:33.000Z</time>
        <extensions>
          <ns3:TrackPointExtension>
            <ns3:hr>124</ns3:hr>
          </ns3:TrackPointExtension>
        </extensions>
      </trkpt>
      <trkpt lat="52.627003490924835205078125" lon="10.0625634379684925079345703125">
        <ele>40</ele>
        <time>2022-04-19T10:41:47.000Z</time>
        <extensions>
          <ns3:TrackPointExtension>
            <ns3:hr>122</ns3:hr>
          </ns3:TrackPointExtension>
        </extensions>
      </trkpt>
      <trkpt lat="52.62698982842266559600830078125" lon="10.0627176649868488311767578125">
        <ele>39.799999237060546875</ele>
        <time>2022-04-19T10:41:55.000Z</time>
        <extensions>
          <ns3:TrackPointExtension>
            <ns3:hr>119</ns3:hr>
          </ns3:TrackPointExtension>
        </extensions>
      </trkpt>
      <trkpt lat="52.6269684545695781707763671875" lon="10.0630318187177181243896484375">
        <ele>39.59999847412109375</ele>
        <time>2022-04-19T10:42:08.000Z</time>
        <extensions>
          <ns3:TrackPointExtension>
            <ns3:hr>117</ns3:hr>
          </ns3:TrackPointExtension>
        </extensions>
      </trkpt>
      <trkpt lat="52.62695043347775936126708984375" lon="10.06332661025226116180419921875">
        <ele>39.799999237060546875</ele>
        <time>2022-04-19T10:42:23.000Z</time>
        <extensions>
          <ns3:TrackPointExtension>
            <ns3:hr>117</ns3:hr>
          </ns3:TrackPointExtension>
        </extensions>
      </trkpt>
      <trkpt lat="52.6269322447478771209716796875" lon="10.06340523250401020050048828125">
        <ele>39.799999237060546875</ele>
        <time>2022-04-19T10:42:27.000Z</time>
        <extensions>
          <ns3:TrackPointExtension>
            <ns3:hr>116</ns3:hr>
          </ns3:TrackPointExtension>
        </extensions>
      </trkpt>
      <trkpt lat="52.62674574740231037139892578125" lon="10.06339542567729949951171875">
        <ele>39.200000762939453125</ele>
        <time>2022-04-19T10:42:43.000Z</time>
        <extensions>
          <ns3:TrackPointExtension>
            <ns3:hr>117</ns3:hr>
          </ns3:TrackPointExtension>
        </extensions>
      </trkpt>
      <trkpt lat="52.62658665888011455535888671875" lon="10.06335225887596607208251953125">
        <ele>39</ele>
        <time>2022-04-19T10:42:56.000Z</time>
        <extensions>
          <ns3:TrackPointExtension>
            <ns3:hr>117</ns3:hr>
          </ns3:TrackPointExtension>
        </extensions>
      </trkpt>
      <trkpt lat="52.626472748816013336181640625" lon="10.0633302144706249237060546875">
        <ele>38.799999237060546875</ele>
        <time>2022-04-19T10:43:05.000Z</time>
        <extensions>
          <ns3:TrackPointExtension>
            <ns3:hr>114</ns3:hr>
          </ns3:TrackPointExtension>
        </extensions>
      </trkpt>
      <trkpt lat="52.62634408660233020782470703125" lon="10.0633156299591064453125">
        <ele>38.799999237060546875</ele>
        <time>2022-04-19T10:43:14.000Z</time>
        <extensions>
          <ns3:TrackPointExtension>
            <ns3:hr>117</ns3:hr>
          </ns3:TrackPointExtension>
        </extensions>
      </trkpt>
      <trkpt lat="52.62616286985576152801513671875" lon="10.06326760165393352508544921875">
        <ele>38.59999847412109375</ele>
        <time>2022-04-19T10:43:27.000Z</time>
        <extensions>
          <ns3:TrackPointExtension>
            <ns3:hr>119</ns3:hr>
          </ns3:TrackPointExtension>
        </extensions>
      </trkpt>
      <trkpt lat="52.6260487921535968780517578125" lon="10.06324480287730693817138671875">
        <ele>39</ele>
        <time>2022-04-19T10:43:37.000Z</time>
        <extensions>
          <ns3:TrackPointExtension>
            <ns3:hr>116</ns3:hr>
          </ns3:TrackPointExtension>
        </extensions>
      </trkpt>
      <trkpt lat="52.625855840742588043212890625" lon="10.06319417618215084075927734375">
        <ele>39</ele>
        <time>2022-04-19T10:43:50.000Z</time>
        <extensions>
          <ns3:TrackPointExtension>
            <ns3:hr>114</ns3:hr>
          </ns3:TrackPointExtension>
        </extensions>
      </trkpt>
      <trkpt lat="52.62566682882606983184814453125" lon="10.06317120976746082305908203125">
        <ele>39.200000762939453125</ele>
        <time>2022-04-19T10:44:03.000Z</time>
        <extensions>
          <ns3:TrackPointExtension>
            <ns3:hr>117</ns3:hr>
          </ns3:TrackPointExtension>
        </extensions>
      </trkpt>
      <trkpt lat="52.6254791580140590667724609375" lon="10.0631075911223888397216796875">
        <ele>39</ele>
        <time>2022-04-19T10:44:17.000Z</time>
        <extensions>
          <ns3:TrackPointExtension>
            <ns3:hr>116</ns3:hr>
          </ns3:TrackPointExtension>
        </extensions>
      </trkpt>
      <trkpt lat="52.6252957619726657867431640625" lon="10.06305721588432788848876953125">
        <ele>39.200000762939453125</ele>
        <time>2022-04-19T10:44:31.000Z</time>
        <extensions>
          <ns3:TrackPointExtension>
            <ns3:hr>117</ns3:hr>
          </ns3:TrackPointExtension>
        </extensions>
      </trkpt>
      <trkpt lat="52.6252598874270915985107421875" lon="10.06304464302957057952880859375">
        <ele>39.200000762939453125</ele>
        <time>2022-04-19T10:44:34.000Z</time>
        <extensions>
          <ns3:TrackPointExtension>
            <ns3:hr>114</ns3:hr>
          </ns3:TrackPointExtension>
        </extensions>
      </trkpt>
      <trkpt lat="52.6251888088881969451904296875" lon="10.0630234368145465850830078125">
        <ele>39.200000762939453125</ele>
        <time>2022-04-19T10:44:39.000Z</time>
        <extensions>
          <ns3:TrackPointExtension>
            <ns3:hr>111</ns3:hr>
          </ns3:TrackPointExtension>
        </extensions>
      </trkpt>
      <trkpt lat="52.62500298209488391876220703125" lon="10.0629744865000247955322265625">
        <ele>39.40000152587890625</ele>
        <time>2022-04-19T10:44:53.000Z</time>
        <extensions>
          <ns3:TrackPointExtension>
            <ns3:hr>112</ns3:hr>
          </ns3:TrackPointExtension>
        </extensions>
      </trkpt>
      <trkpt lat="52.624845318496227264404296875" lon="10.06294758059084415435791015625">
        <ele>39.59999847412109375</ele>
        <time>2022-04-19T10:45:04.000Z</time>
        <extensions>
          <ns3:TrackPointExtension>
            <ns3:hr>115</ns3:hr>
          </ns3:TrackPointExtension>
        </extensions>
      </trkpt>
      <trkpt lat="52.62465278618037700653076171875" lon="10.0629084371030330657958984375">
        <ele>39.799999237060546875</ele>
        <time>2022-04-19T10:45:18.000Z</time>
        <extensions>
          <ns3:TrackPointExtension>
            <ns3:hr>114</ns3:hr>
          </ns3:TrackPointExtension>
        </extensions>
      </trkpt>
      <trkpt lat="52.624469138681888580322265625" lon="10.0628849677741527557373046875">
        <ele>40</ele>
        <time>2022-04-19T10:45:31.000Z</time>
        <extensions>
          <ns3:TrackPointExtension>
            <ns3:hr>114</ns3:hr>
          </ns3:TrackPointExtension>
        </extensions>
      </trkpt>
      <trkpt lat="52.6243784464895725250244140625" lon="10.0628712214529514312744140625">
        <ele>40</ele>
        <time>2022-04-19T10:45:38.000Z</time>
        <extensions>
          <ns3:TrackPointExtension>
            <ns3:hr>114</ns3:hr>
          </ns3:TrackPointExtension>
        </extensions>
      </trkpt>
      <trkpt lat="52.62418993748724460601806640625" lon="10.0628185831010341644287109375">
        <ele>40</ele>
        <time>2022-04-19T10:45:51.000Z</time>
        <extensions>
          <ns3:TrackPointExtension>
            <ns3:hr>113</ns3:hr>
          </ns3:TrackPointExtension>
        </extensions>
      </trkpt>
      <trkpt lat="52.62400737963616847991943359375" lon="10.06276804022490978240966796875">
        <ele>40.40000152587890625</ele>
        <time>2022-04-19T10:46:05.000Z</time>
        <extensions>
          <ns3:TrackPointExtension>
            <ns3:hr>114</ns3:hr>
          </ns3:TrackPointExtension>
        </extensions>
      </trkpt>
      <trkpt lat="52.62381845153868198394775390625" lon="10.06271573714911937713623046875">
        <ele>40.40000152587890625</ele>
        <time>2022-04-19T10:46:20.000Z</time>
        <extensions>
          <ns3:TrackPointExtension>
            <ns3:hr>116</ns3:hr>
          </ns3:TrackPointExtension>
        </extensions>
      </trkpt>
      <trkpt lat="52.62363622896373271942138671875" lon="10.0626893341541290283203125">
        <ele>40.799999237060546875</ele>
        <time>2022-04-19T10:46:34.000Z</time>
        <extensions>
          <ns3:TrackPointExtension>
            <ns3:hr>114</ns3:hr>
          </ns3:TrackPointExtension>
        </extensions>
      </trkpt>
      <trkpt lat="52.62345685623586177825927734375" lon="10.0626489333808422088623046875">
        <ele>40.59999847412109375</ele>
        <time>2022-04-19T10:46:47.000Z</time>
        <extensions>
          <ns3:TrackPointExtension>
            <ns3:hr>115</ns3:hr>
          </ns3:TrackPointExtension>
        </extensions>
      </trkpt>
      <trkpt lat="52.6233303733170032501220703125" lon="10.06270299665629863739013671875">
        <ele>40.200000762939453125</ele>
        <time>2022-04-19T10:46:57.000Z</time>
        <extensions>
          <ns3:TrackPointExtension>
            <ns3:hr>118</ns3:hr>
          </ns3:TrackPointExtension>
        </extensions>
      </trkpt>
      <trkpt lat="52.6232348196208477020263671875" lon="10.062894858419895172119140625">
        <ele>39.799999237060546875</ele>
        <time>2022-04-19T10:47:08.000Z</time>
        <extensions>
          <ns3:TrackPointExtension>
            <ns3:hr>115</ns3:hr>
          </ns3:TrackPointExtension>
        </extensions>
      </trkpt>
      <trkpt lat="52.62317623011767864227294921875" lon="10.06318914704024791717529296875">
        <ele>39.799999237060546875</ele>
        <time>2022-04-19T10:47:22.000Z</time>
        <extensions>
          <ns3:TrackPointExtension>
            <ns3:hr>115</ns3:hr>
          </ns3:TrackPointExtension>
        </extensions>
      </trkpt>
      <trkpt lat="52.62324730865657329559326171875" lon="10.06346792913973331451416015625">
        <ele>40.59999847412109375</ele>
        <time>2022-04-19T10:47:38.000Z</time>
        <extensions>
          <ns3:TrackPointExtension>
            <ns3:hr>114</ns3:hr>
          </ns3:TrackPointExtension>
        </extensions>
      </trkpt>
      <trkpt lat="52.62329860590398311614990234375" lon="10.06367630325257778167724609375">
        <ele>41.200000762939453125</ele>
        <time>2022-04-19T10:47:48.000Z</time>
        <extensions>
          <ns3:TrackPointExtension>
            <ns3:hr>116</ns3:hr>
          </ns3:TrackPointExtension>
        </extensions>
      </trkpt>
      <trkpt lat="52.623341269791126251220703125" lon="10.06379884667694568634033203125">
        <ele>41.799999237060546875</ele>
        <time>2022-04-19T10:47:55.000Z</time>
        <extensions>
          <ns3:TrackPointExtension>
            <ns3:hr>116</ns3:hr>
          </ns3:TrackPointExtension>
        </extensions>
      </trkpt>
      <trkpt lat="52.62340254150331020355224609375" lon="10.06386036984622478485107421875">
        <ele>42.200000762939453125</ele>
        <time>2022-04-19T10:48:00.000Z</time>
        <extensions>
          <ns3:TrackPointExtension>
            <ns3:hr>115</ns3:hr>
          </ns3:TrackPointExtension>
        </extensions>
      </trkpt>
      <trkpt lat="52.6234809122979640960693359375" lon="10.0639209710061550140380859375">
        <ele>43.200000762939453125</ele>
        <time>2022-04-19T10:48:06.000Z</time>
        <extensions>
          <ns3:TrackPointExtension>
            <ns3:hr>114</ns3:hr>
          </ns3:TrackPointExtension>
        </extensions>
      </trkpt>
      <trkpt lat="52.6234939880669116973876953125" lon="10.06395759992301464080810546875">
        <ele>43.200000762939453125</ele>
        <time>2022-04-19T10:48:08.000Z</time>
        <extensions>
          <ns3:TrackPointExtension>
            <ns3:hr>115</ns3:hr>
          </ns3:TrackPointExtension>
        </extensions>
      </trkpt>
      <trkpt lat="52.623479068279266357421875" lon="10.0639803148806095123291015625">
        <ele>43.40000152587890625</ele>
        <time>2022-04-19T10:48:10.000Z</time>
        <extensions>
          <ns3:TrackPointExtension>
            <ns3:hr>115</ns3:hr>
          </ns3:TrackPointExtension>
        </extensions>
      </trkpt>
      <trkpt lat="52.62329374440014362335205078125" lon="10.06397503428161144256591796875">
        <ele>44</ele>
        <time>2022-04-19T10:48:23.000Z</time>
        <extensions>
          <ns3:TrackPointExtension>
            <ns3:hr>116</ns3:hr>
          </ns3:TrackPointExtension>
        </extensions>
      </trkpt>
      <trkpt lat="52.62323406524956226348876953125" lon="10.0639746151864528656005859375">
        <ele>44.200000762939453125</ele>
        <time>2022-04-19T10:48:27.000Z</time>
        <extensions>
          <ns3:TrackPointExtension>
            <ns3:hr>117</ns3:hr>
          </ns3:TrackPointExtension>
        </extensions>
      </trkpt>
      <trkpt lat="52.62310557067394256591796875" lon="10.06395055912435054779052734375">
        <ele>45</ele>
        <time>2022-04-19T10:48:37.000Z</time>
        <extensions>
          <ns3:TrackPointExtension>
            <ns3:hr>114</ns3:hr>
          </ns3:TrackPointExtension>
        </extensions>
      </trkpt>
      <trkpt lat="52.6229119487106800079345703125" lon="10.06389590911567211151123046875">
        <ele>45.200000762939453125</ele>
        <time>2022-04-19T10:48:51.000Z</time>
        <extensions>
          <ns3:TrackPointExtension>
            <ns3:hr>114</ns3:hr>
          </ns3:TrackPointExtension>
        </extensions>
      </trkpt>
      <trkpt lat="52.6229119487106800079345703125" lon="10.06389590911567211151123046875">
        <ele>45.200000762939453125</ele>
        <time>2022-04-19T10:48:52.000Z</time>
        <extensions>
          <ns3:TrackPointExtension>
            <ns3:hr>114</ns3:hr>
          </ns3:TrackPointExtension>
        </extensions>
      </trkpt>
      <trkpt lat="52.622721008956432342529296875" lon="10.063860118389129638671875">
        <ele>45.40000152587890625</ele>
        <time>2022-04-19T10:49:05.000Z</time>
        <extensions>
          <ns3:TrackPointExtension>
            <ns3:hr>113</ns3:hr>
          </ns3:TrackPointExtension>
        </extensions>
      </trkpt>
      <trkpt lat="52.62257223017513751983642578125" lon="10.06382860243320465087890625">
        <ele>45.200000762939453125</ele>
        <time>2022-04-19T10:49:17.000Z</time>
        <extensions>
          <ns3:TrackPointExtension>
            <ns3:hr>110</ns3:hr>
          </ns3:TrackPointExtension>
        </extensions>
      </trkpt>
      <trkpt lat="52.62240509502589702606201171875" lon="10.0637568533420562744140625">
        <ele>44.799999237060546875</ele>
        <time>2022-04-19T10:49:31.000Z</time>
        <extensions>
          <ns3:TrackPointExtension>
            <ns3:hr>113</ns3:hr>
          </ns3:TrackPointExtension>
        </extensions>
      </trkpt>
      <trkpt lat="52.62231926433742046356201171875" lon="10.06368434987962245941162109375">
        <ele>44.200000762939453125</ele>
        <time>2022-04-19T10:49:38.000Z</time>
        <extensions>
          <ns3:TrackPointExtension>
            <ns3:hr>114</ns3:hr>
          </ns3:TrackPointExtension>
        </extensions>
      </trkpt>
      <trkpt lat="52.62222320772707462310791015625" lon="10.0635685957968235015869140625">
        <ele>43.799999237060546875</ele>
        <time>2022-04-19T10:49:47.000Z</time>
        <extensions>
          <ns3:TrackPointExtension>
            <ns3:hr>111</ns3:hr>
          </ns3:TrackPointExtension>
        </extensions>
      </trkpt>
      <trkpt lat="52.62204182334244251251220703125" lon="10.06362064741551876068115234375">
        <ele>43.799999237060546875</ele>
        <time>2022-04-19T10:50:02.000Z</time>
        <extensions>
          <ns3:TrackPointExtension>
            <ns3:hr>113</ns3:hr>
          </ns3:TrackPointExtension>
        </extensions>
      </trkpt>
      <trkpt lat="52.62199287302792072296142578125" lon="10.0636567734181880950927734375">
        <ele>43.200000762939453125</ele>
        <time>2022-04-19T10:50:06.000Z</time>
        <extensions>
          <ns3:TrackPointExtension>
            <ns3:hr>114</ns3:hr>
          </ns3:TrackPointExtension>
        </extensions>
      </trkpt>
      <trkpt lat="52.62180930934846401214599609375" lon="10.06366523914039134979248046875">
        <ele>43</ele>
        <time>2022-04-19T10:50:18.000Z</time>
        <extensions>
          <ns3:TrackPointExtension>
            <ns3:hr>115</ns3:hr>
          </ns3:TrackPointExtension>
        </extensions>
      </trkpt>
      <trkpt lat="52.6216710917651653289794921875" lon="10.0634794123470783233642578125">
        <ele>42.799999237060546875</ele>
        <time>2022-04-19T10:50:32.000Z</time>
        <extensions>
          <ns3:TrackPointExtension>
            <ns3:hr>112</ns3:hr>
          </ns3:TrackPointExtension>
        </extensions>
      </trkpt>
      <trkpt lat="52.6214920543134212493896484375" lon="10.0634267739951610565185546875">
        <ele>42.59999847412109375</ele>
        <time>2022-04-19T10:50:49.000Z</time>
        <extensions>
          <ns3:TrackPointExtension>
            <ns3:hr>113</ns3:hr>
          </ns3:TrackPointExtension>
        </extensions>
      </trkpt>
      <trkpt lat="52.6214119233191013336181640625" lon="10.0634616427123546600341796875">
        <ele>42.59999847412109375</ele>
        <time>2022-04-19T10:50:55.000Z</time>
        <extensions>
          <ns3:TrackPointExtension>
            <ns3:hr>116</ns3:hr>
          </ns3:TrackPointExtension>
        </extensions>
      </trkpt>
      <trkpt lat="52.6212486438453197479248046875" lon="10.06362450309097766876220703125">
        <ele>42.40000152587890625</ele>
        <time>2022-04-19T10:51:07.000Z</time>
        <extensions>
          <ns3:TrackPointExtension>
            <ns3:hr>114</ns3:hr>
          </ns3:TrackPointExtension>
        </extensions>
      </trkpt>
      <trkpt lat="52.6212422735989093780517578125" lon="10.06363146007061004638671875">
        <ele>42.200000762939453125</ele>
        <time>2022-04-19T10:51:09.000Z</time>
        <extensions>
          <ns3:TrackPointExtension>
            <ns3:hr>113</ns3:hr>
          </ns3:TrackPointExtension>
        </extensions>
      </trkpt>
    </trkseg>
  </trk>
</gpx>
